<?xml version="1.0" encoding="UTF-8" standalone="no" ?>
<gpx xmlns="http://www.topografix.com/GPX/1/1" xmlns:xsi="http://www.w3.org/2001/XMLSchema-instance" xsi:schemaLocation="http://www.topografix.com/GPX/1/1 http://www.topografix.com/GPX/1/1/gpx.xsd" version="1.1" creator="VisuGPX - https://www.visugpx.com">
  <metadata>
    <name>Balade autour de la tête du Douard</name>
    <desc><![CDATA[
Itinéraire facile et agréable]]></desc>
  </metadata>
  <wpt lat="43.27323" lon="5.63847">
    <ele>132.4</ele>
    <name><![CDATA[Repecho de 12% durante 114 metros]]></name>
  </wpt>
  <wpt lat="43.2686" lon="5.64444">
    <ele>222.8</ele>
    <name><![CDATA[Repecho de 11% durante 108 metros]]></name>
  </wpt>
  <wpt lat="43.26575" lon="5.62946">
    <ele>347.8</ele>
    <name><![CDATA[Repecho de 16% durante 123 metros]]></name>
  </wpt>
  <wpt lat="43.27173" lon="5.60612">
    <ele>396.6</ele>
    <name><![CDATA[Repecho de 16% durante 137 metros]]></name>
  </wpt>
  <trk>
    <name><![CDATA[www.ibpindex.com 38318140876081]]></name>
    <desc><![CDATA[www.ibpindex.com 38318140876081]]></desc>
    <trkseg>
      <trkpt lat="43.27354" lon="5.63832">
        <ele>129.2</ele>
        <time>2021-06-02T08:35:16Z</time>
      </trkpt>
      <trkpt lat="43.27344" lon="5.63836">
        <ele>129.8</ele>
        <time>2021-06-02T08:35:38Z</time>
      </trkpt>
      <trkpt lat="43.27332" lon="5.63842">
        <ele>130.7</ele>
        <time>2021-06-02T08:35:52Z</time>
      </trkpt>
      <trkpt lat="43.27323" lon="5.63847">
        <ele>132.4</ele>
        <time>2021-06-02T08:36:02Z</time>
      </trkpt>
      <trkpt lat="43.27312" lon="5.63851">
        <ele>134.4</ele>
        <time>2021-06-02T08:36:14Z</time>
      </trkpt>
      <trkpt lat="43.273" lon="5.6385">
        <ele>136.2</ele>
        <time>2021-06-02T08:36:26Z</time>
      </trkpt>
      <trkpt lat="43.27288" lon="5.63849">
        <ele>138</ele>
        <time>2021-06-02T08:36:38Z</time>
      </trkpt>
      <trkpt lat="43.27279" lon="5.63847">
        <ele>139.1</ele>
        <time>2021-06-02T08:36:46Z</time>
      </trkpt>
      <trkpt lat="43.27266" lon="5.63845">
        <ele>140.6</ele>
        <time>2021-06-02T08:36:58Z</time>
      </trkpt>
      <trkpt lat="43.27255" lon="5.63842">
        <ele>141.6</ele>
        <time>2021-06-02T08:37:10Z</time>
      </trkpt>
      <trkpt lat="43.27244" lon="5.63837">
        <ele>143</ele>
        <time>2021-06-02T08:37:22Z</time>
      </trkpt>
      <trkpt lat="43.27234" lon="5.63832">
        <ele>145.4</ele>
        <time>2021-06-02T08:37:30Z</time>
      </trkpt>
      <trkpt lat="43.27224" lon="5.63826">
        <ele>148.1</ele>
        <time>2021-06-02T08:37:40Z</time>
      </trkpt>
      <trkpt lat="43.27214" lon="5.63822">
        <ele>151</ele>
        <time>2021-06-02T08:37:50Z</time>
      </trkpt>
      <trkpt lat="43.27204" lon="5.63816">
        <ele>153.7</ele>
        <time>2021-06-02T08:38:04Z</time>
      </trkpt>
      <trkpt lat="43.27192" lon="5.63813">
        <ele>157.4</ele>
        <time>2021-06-02T08:38:16Z</time>
      </trkpt>
      <trkpt lat="43.27188" lon="5.63821">
        <ele>159.7</ele>
        <time>2021-06-02T08:38:32Z</time>
      </trkpt>
      <trkpt lat="43.27195" lon="5.63835">
        <ele>159.5</ele>
        <time>2021-06-02T08:38:42Z</time>
      </trkpt>
      <trkpt lat="43.27205" lon="5.63842">
        <ele>157.8</ele>
        <time>2021-06-02T08:38:52Z</time>
      </trkpt>
      <trkpt lat="43.27215" lon="5.63852">
        <ele>156.5</ele>
        <time>2021-06-02T08:39:04Z</time>
      </trkpt>
      <trkpt lat="43.27223" lon="5.63859">
        <ele>155.5</ele>
        <time>2021-06-02T08:39:12Z</time>
      </trkpt>
      <trkpt lat="43.27234" lon="5.63869">
        <ele>154.3</ele>
        <time>2021-06-02T08:39:24Z</time>
      </trkpt>
      <trkpt lat="43.27245" lon="5.63876">
        <ele>152.3</ele>
        <time>2021-06-02T08:39:32Z</time>
      </trkpt>
      <trkpt lat="43.27255" lon="5.63884">
        <ele>151.6</ele>
        <time>2021-06-02T08:39:42Z</time>
      </trkpt>
      <trkpt lat="43.27265" lon="5.6389">
        <ele>150.6</ele>
        <time>2021-06-02T08:39:54Z</time>
      </trkpt>
      <trkpt lat="43.27273" lon="5.639">
        <ele>150.6</ele>
        <time>2021-06-02T08:40:04Z</time>
      </trkpt>
      <trkpt lat="43.27276" lon="5.63914">
        <ele>152.6</ele>
        <time>2021-06-02T08:40:16Z</time>
      </trkpt>
      <trkpt lat="43.27264" lon="5.63913">
        <ele>155.9</ele>
        <time>2021-06-02T08:40:26Z</time>
      </trkpt>
      <trkpt lat="43.27253" lon="5.63905">
        <ele>157.1</ele>
        <time>2021-06-02T08:40:34Z</time>
      </trkpt>
      <trkpt lat="43.27243" lon="5.63898">
        <ele>158.2</ele>
        <time>2021-06-02T08:40:42Z</time>
      </trkpt>
      <trkpt lat="43.27237" lon="5.63889">
        <ele>158.1</ele>
        <time>2021-06-02T08:40:50Z</time>
      </trkpt>
      <trkpt lat="43.27228" lon="5.6388">
        <ele>158.5</ele>
        <time>2021-06-02T08:41:00Z</time>
      </trkpt>
      <trkpt lat="43.27219" lon="5.63876">
        <ele>160.6</ele>
        <time>2021-06-02T08:41:10Z</time>
      </trkpt>
      <trkpt lat="43.27208" lon="5.6387">
        <ele>162.7</ele>
        <time>2021-06-02T08:41:26Z</time>
      </trkpt>
      <trkpt lat="43.27196" lon="5.63866">
        <ele>165.6</ele>
        <time>2021-06-02T08:41:38Z</time>
      </trkpt>
      <trkpt lat="43.27196" lon="5.63878">
        <ele>168.5</ele>
        <time>2021-06-02T08:41:50Z</time>
      </trkpt>
      <trkpt lat="43.27203" lon="5.63887">
        <ele>168.1</ele>
        <time>2021-06-02T08:41:58Z</time>
      </trkpt>
      <trkpt lat="43.27211" lon="5.63894">
        <ele>167.1</ele>
        <time>2021-06-02T08:42:06Z</time>
      </trkpt>
      <trkpt lat="43.2722" lon="5.63901">
        <ele>166.1</ele>
        <time>2021-06-02T08:42:16Z</time>
      </trkpt>
      <trkpt lat="43.27229" lon="5.6391">
        <ele>165.5</ele>
        <time>2021-06-02T08:42:26Z</time>
      </trkpt>
      <trkpt lat="43.27235" lon="5.63923">
        <ele>165.3</ele>
        <time>2021-06-02T08:42:38Z</time>
      </trkpt>
      <trkpt lat="43.27224" lon="5.63927">
        <ele>168.4</ele>
        <time>2021-06-02T08:42:50Z</time>
      </trkpt>
      <trkpt lat="43.27215" lon="5.63922">
        <ele>171.1</ele>
        <time>2021-06-02T08:42:58Z</time>
      </trkpt>
      <trkpt lat="43.27206" lon="5.63916">
        <ele>173.6</ele>
        <time>2021-06-02T08:43:08Z</time>
      </trkpt>
      <trkpt lat="43.27195" lon="5.63915">
        <ele>176.5</ele>
        <time>2021-06-02T08:43:20Z</time>
      </trkpt>
      <trkpt lat="43.27197" lon="5.63928">
        <ele>176.4</ele>
        <time>2021-06-02T08:43:32Z</time>
      </trkpt>
      <trkpt lat="43.27208" lon="5.63939">
        <ele>173.2</ele>
        <time>2021-06-02T08:43:44Z</time>
      </trkpt>
      <trkpt lat="43.27216" lon="5.63945">
        <ele>170.8</ele>
        <time>2021-06-02T08:43:52Z</time>
      </trkpt>
      <trkpt lat="43.27224" lon="5.63958">
        <ele>168.5</ele>
        <time>2021-06-02T08:44:04Z</time>
      </trkpt>
      <trkpt lat="43.27222" lon="5.63974">
        <ele>169</ele>
        <time>2021-06-02T08:44:16Z</time>
      </trkpt>
      <trkpt lat="43.27214" lon="5.63987">
        <ele>171.5</ele>
        <time>2021-06-02T08:44:28Z</time>
      </trkpt>
      <trkpt lat="43.27207" lon="5.64">
        <ele>174</ele>
        <time>2021-06-02T08:44:40Z</time>
      </trkpt>
      <trkpt lat="43.27198" lon="5.6401">
        <ele>175.6</ele>
        <time>2021-06-02T08:44:52Z</time>
      </trkpt>
      <trkpt lat="43.27188" lon="5.6402">
        <ele>177.8</ele>
        <time>2021-06-02T08:45:04Z</time>
      </trkpt>
      <trkpt lat="43.27179" lon="5.64033">
        <ele>179.4</ele>
        <time>2021-06-02T08:45:16Z</time>
      </trkpt>
      <trkpt lat="43.27169" lon="5.64043">
        <ele>181.8</ele>
        <time>2021-06-02T08:45:28Z</time>
      </trkpt>
      <trkpt lat="43.2716" lon="5.64049">
        <ele>183.7</ele>
        <time>2021-06-02T08:48:18Z</time>
      </trkpt>
      <trkpt lat="43.2715" lon="5.64054">
        <ele>185.7</ele>
        <time>2021-06-02T08:48:28Z</time>
      </trkpt>
      <trkpt lat="43.27138" lon="5.64059">
        <ele>187.9</ele>
        <time>2021-06-02T08:48:40Z</time>
      </trkpt>
      <trkpt lat="43.27128" lon="5.64065">
        <ele>189.9</ele>
        <time>2021-06-02T08:48:52Z</time>
      </trkpt>
      <trkpt lat="43.27117" lon="5.64071">
        <ele>191.9</ele>
        <time>2021-06-02T08:49:04Z</time>
      </trkpt>
      <trkpt lat="43.27107" lon="5.64077">
        <ele>193.8</ele>
        <time>2021-06-02T08:49:14Z</time>
      </trkpt>
      <trkpt lat="43.27099" lon="5.64086">
        <ele>194.8</ele>
        <time>2021-06-02T08:49:26Z</time>
      </trkpt>
      <trkpt lat="43.2709" lon="5.64095">
        <ele>196</ele>
        <time>2021-06-02T08:49:38Z</time>
      </trkpt>
      <trkpt lat="43.27081" lon="5.64105">
        <ele>196.8</ele>
        <time>2021-06-02T08:49:50Z</time>
      </trkpt>
      <trkpt lat="43.27073" lon="5.64115">
        <ele>197.8</ele>
        <time>2021-06-02T08:50:02Z</time>
      </trkpt>
      <trkpt lat="43.27065" lon="5.64127">
        <ele>198.7</ele>
        <time>2021-06-02T08:50:14Z</time>
      </trkpt>
      <trkpt lat="43.27057" lon="5.64138">
        <ele>199.8</ele>
        <time>2021-06-02T08:50:26Z</time>
      </trkpt>
      <trkpt lat="43.2705" lon="5.64149">
        <ele>200.8</ele>
        <time>2021-06-02T08:50:38Z</time>
      </trkpt>
      <trkpt lat="43.27041" lon="5.6416">
        <ele>202.6</ele>
        <time>2021-06-02T08:50:50Z</time>
      </trkpt>
      <trkpt lat="43.27034" lon="5.64172">
        <ele>203.6</ele>
        <time>2021-06-02T08:51:02Z</time>
      </trkpt>
      <trkpt lat="43.27026" lon="5.64182">
        <ele>205</ele>
        <time>2021-06-02T08:51:12Z</time>
      </trkpt>
      <trkpt lat="43.27018" lon="5.64192">
        <ele>206.1</ele>
        <time>2021-06-02T08:51:22Z</time>
      </trkpt>
      <trkpt lat="43.27011" lon="5.64207">
        <ele>206.5</ele>
        <time>2021-06-02T08:51:34Z</time>
      </trkpt>
      <trkpt lat="43.27003" lon="5.6422">
        <ele>207.4</ele>
        <time>2021-06-02T08:51:46Z</time>
      </trkpt>
      <trkpt lat="43.26995" lon="5.64233">
        <ele>208.4</ele>
        <time>2021-06-02T08:51:58Z</time>
      </trkpt>
      <trkpt lat="43.26987" lon="5.64246">
        <ele>209</ele>
        <time>2021-06-02T08:52:10Z</time>
      </trkpt>
      <trkpt lat="43.26979" lon="5.64259">
        <ele>209.7</ele>
        <time>2021-06-02T08:52:22Z</time>
      </trkpt>
      <trkpt lat="43.26971" lon="5.64273">
        <ele>210.3</ele>
        <time>2021-06-02T08:52:34Z</time>
      </trkpt>
      <trkpt lat="43.26964" lon="5.64286">
        <ele>211.1</ele>
        <time>2021-06-02T08:52:46Z</time>
      </trkpt>
      <trkpt lat="43.26956" lon="5.64297">
        <ele>212.1</ele>
        <time>2021-06-02T08:52:56Z</time>
      </trkpt>
      <trkpt lat="43.2695" lon="5.6431">
        <ele>212.7</ele>
        <time>2021-06-02T08:53:08Z</time>
      </trkpt>
      <trkpt lat="43.26943" lon="5.64321">
        <ele>213.6</ele>
        <time>2021-06-02T08:53:20Z</time>
      </trkpt>
      <trkpt lat="43.26936" lon="5.64334">
        <ele>214.7</ele>
        <time>2021-06-02T08:53:32Z</time>
      </trkpt>
      <trkpt lat="43.26926" lon="5.64345">
        <ele>216.4</ele>
        <time>2021-06-02T08:53:44Z</time>
      </trkpt>
      <trkpt lat="43.26921" lon="5.64357">
        <ele>217</ele>
        <time>2021-06-02T08:53:56Z</time>
      </trkpt>
      <trkpt lat="43.26912" lon="5.64366">
        <ele>218.6</ele>
        <time>2021-06-02T08:54:06Z</time>
      </trkpt>
      <trkpt lat="43.26905" lon="5.64378">
        <ele>219.2</ele>
        <time>2021-06-02T08:54:18Z</time>
      </trkpt>
      <trkpt lat="43.26899" lon="5.64389">
        <ele>219.5</ele>
        <time>2021-06-02T08:54:30Z</time>
      </trkpt>
      <trkpt lat="43.26891" lon="5.64399">
        <ele>220.3</ele>
        <time>2021-06-02T08:54:42Z</time>
      </trkpt>
      <trkpt lat="43.26883" lon="5.6441">
        <ele>221.1</ele>
        <time>2021-06-02T08:54:54Z</time>
      </trkpt>
      <trkpt lat="43.26875" lon="5.64423">
        <ele>221.6</ele>
        <time>2021-06-02T08:55:06Z</time>
      </trkpt>
      <trkpt lat="43.26869" lon="5.64436">
        <ele>221.5</ele>
        <time>2021-06-02T08:55:18Z</time>
      </trkpt>
      <trkpt lat="43.2686" lon="5.64444">
        <ele>222.8</ele>
        <time>2021-06-02T08:55:28Z</time>
      </trkpt>
      <trkpt lat="43.26855" lon="5.64455">
        <ele>222.8</ele>
        <time>2021-06-02T08:55:38Z</time>
      </trkpt>
      <trkpt lat="43.26849" lon="5.64468">
        <ele>222.9</ele>
        <time>2021-06-02T08:55:48Z</time>
      </trkpt>
      <trkpt lat="43.2684" lon="5.64476">
        <ele>224.7</ele>
        <time>2021-06-02T08:56:00Z</time>
      </trkpt>
      <trkpt lat="43.2683" lon="5.64484">
        <ele>226.5</ele>
        <time>2021-06-02T08:56:12Z</time>
      </trkpt>
      <trkpt lat="43.26822" lon="5.64494">
        <ele>227</ele>
        <time>2021-06-02T08:56:24Z</time>
      </trkpt>
      <trkpt lat="43.26814" lon="5.64504">
        <ele>227.6</ele>
        <time>2021-06-02T08:56:36Z</time>
      </trkpt>
      <trkpt lat="43.26804" lon="5.64512">
        <ele>228.7</ele>
        <time>2021-06-02T08:56:48Z</time>
      </trkpt>
      <trkpt lat="43.26795" lon="5.6452">
        <ele>229.8</ele>
        <time>2021-06-02T08:57:00Z</time>
      </trkpt>
      <trkpt lat="43.26787" lon="5.64528">
        <ele>230.6</ele>
        <time>2021-06-02T08:57:08Z</time>
      </trkpt>
      <trkpt lat="43.26778" lon="5.64535">
        <ele>231.7</ele>
        <time>2021-06-02T08:57:18Z</time>
      </trkpt>
      <trkpt lat="43.26769" lon="5.64544">
        <ele>232.7</ele>
        <time>2021-06-02T08:57:30Z</time>
      </trkpt>
      <trkpt lat="43.26761" lon="5.64552">
        <ele>233.6</ele>
        <time>2021-06-02T08:57:38Z</time>
      </trkpt>
      <trkpt lat="43.26753" lon="5.64564">
        <ele>234.2</ele>
        <time>2021-06-02T08:57:50Z</time>
      </trkpt>
      <trkpt lat="43.26745" lon="5.64571">
        <ele>235.4</ele>
        <time>2021-06-02T08:58:00Z</time>
      </trkpt>
      <trkpt lat="43.26734" lon="5.64576">
        <ele>238</ele>
        <time>2021-06-02T08:58:10Z</time>
      </trkpt>
      <trkpt lat="43.26723" lon="5.64581">
        <ele>240.4</ele>
        <time>2021-06-02T08:58:22Z</time>
      </trkpt>
      <trkpt lat="43.26713" lon="5.64583">
        <ele>242.8</ele>
        <time>2021-06-02T08:58:36Z</time>
      </trkpt>
      <trkpt lat="43.26705" lon="5.64575">
        <ele>245.8</ele>
        <time>2021-06-02T08:58:50Z</time>
      </trkpt>
      <trkpt lat="43.2671" lon="5.64562">
        <ele>245.7</ele>
        <time>2021-06-02T08:59:02Z</time>
      </trkpt>
      <trkpt lat="43.26719" lon="5.64552">
        <ele>244.3</ele>
        <time>2021-06-02T08:59:14Z</time>
      </trkpt>
      <trkpt lat="43.26727" lon="5.64539">
        <ele>243.3</ele>
        <time>2021-06-02T08:59:26Z</time>
      </trkpt>
      <trkpt lat="43.26733" lon="5.64527">
        <ele>243</ele>
        <time>2021-06-02T08:59:36Z</time>
      </trkpt>
      <trkpt lat="43.26737" lon="5.64512">
        <ele>243.3</ele>
        <time>2021-06-02T08:59:48Z</time>
      </trkpt>
      <trkpt lat="43.2674" lon="5.64498">
        <ele>243.8</ele>
        <time>2021-06-02T08:59:58Z</time>
      </trkpt>
      <trkpt lat="43.26745" lon="5.64485">
        <ele>244.2</ele>
        <time>2021-06-02T09:00:08Z</time>
      </trkpt>
      <trkpt lat="43.26746" lon="5.64469">
        <ele>245.5</ele>
        <time>2021-06-02T09:00:20Z</time>
      </trkpt>
      <trkpt lat="43.26752" lon="5.64455">
        <ele>246</ele>
        <time>2021-06-02T09:00:32Z</time>
      </trkpt>
      <trkpt lat="43.26756" lon="5.6444">
        <ele>246.9</ele>
        <time>2021-06-02T09:00:44Z</time>
      </trkpt>
      <trkpt lat="43.26761" lon="5.64425">
        <ele>247.7</ele>
        <time>2021-06-02T09:00:56Z</time>
      </trkpt>
      <trkpt lat="43.26762" lon="5.6441">
        <ele>249</ele>
        <time>2021-06-02T09:01:46Z</time>
      </trkpt>
      <trkpt lat="43.26763" lon="5.64396">
        <ele>250.1</ele>
        <time>2021-06-02T09:02:16Z</time>
      </trkpt>
      <trkpt lat="43.26766" lon="5.64383">
        <ele>250.8</ele>
        <time>2021-06-02T09:02:28Z</time>
      </trkpt>
      <trkpt lat="43.26767" lon="5.6437">
        <ele>251.9</ele>
        <time>2021-06-02T09:02:36Z</time>
      </trkpt>
      <trkpt lat="43.2677" lon="5.64355">
        <ele>252.7</ele>
        <time>2021-06-02T09:02:44Z</time>
      </trkpt>
      <trkpt lat="43.26771" lon="5.6434">
        <ele>254.1</ele>
        <time>2021-06-02T09:02:54Z</time>
      </trkpt>
      <trkpt lat="43.26773" lon="5.64324">
        <ele>254.9</ele>
        <time>2021-06-02T09:03:04Z</time>
      </trkpt>
      <trkpt lat="43.26776" lon="5.64309">
        <ele>255.4</ele>
        <time>2021-06-02T09:03:14Z</time>
      </trkpt>
      <trkpt lat="43.26778" lon="5.64297">
        <ele>255.9</ele>
        <time>2021-06-02T09:03:22Z</time>
      </trkpt>
      <trkpt lat="43.2678" lon="5.64279">
        <ele>256.6</ele>
        <time>2021-06-02T09:03:34Z</time>
      </trkpt>
      <trkpt lat="43.26781" lon="5.64266">
        <ele>257.2</ele>
        <time>2021-06-02T09:03:42Z</time>
      </trkpt>
      <trkpt lat="43.26784" lon="5.64248">
        <ele>258</ele>
        <time>2021-06-02T09:03:54Z</time>
      </trkpt>
      <trkpt lat="43.26781" lon="5.64234">
        <ele>259.2</ele>
        <time>2021-06-02T09:04:04Z</time>
      </trkpt>
      <trkpt lat="43.26787" lon="5.64219">
        <ele>258.9</ele>
        <time>2021-06-02T09:04:14Z</time>
      </trkpt>
      <trkpt lat="43.2679" lon="5.64205">
        <ele>259</ele>
        <time>2021-06-02T09:04:24Z</time>
      </trkpt>
      <trkpt lat="43.26791" lon="5.64192">
        <ele>259.4</ele>
        <time>2021-06-02T09:04:32Z</time>
      </trkpt>
      <trkpt lat="43.26795" lon="5.64177">
        <ele>259.3</ele>
        <time>2021-06-02T09:04:42Z</time>
      </trkpt>
      <trkpt lat="43.26796" lon="5.64163">
        <ele>259.9</ele>
        <time>2021-06-02T09:04:52Z</time>
      </trkpt>
      <trkpt lat="43.26797" lon="5.6415">
        <ele>260.6</ele>
        <time>2021-06-02T09:05:00Z</time>
      </trkpt>
      <trkpt lat="43.26794" lon="5.64134">
        <ele>262</ele>
        <time>2021-06-02T09:05:14Z</time>
      </trkpt>
      <trkpt lat="43.26793" lon="5.64119">
        <ele>263.3</ele>
        <time>2021-06-02T09:05:22Z</time>
      </trkpt>
      <trkpt lat="43.26796" lon="5.64105">
        <ele>263.7</ele>
        <time>2021-06-02T09:05:32Z</time>
      </trkpt>
      <trkpt lat="43.26796" lon="5.6409">
        <ele>264.6</ele>
        <time>2021-06-02T09:05:42Z</time>
      </trkpt>
      <trkpt lat="43.26793" lon="5.64073">
        <ele>266.2</ele>
        <time>2021-06-02T09:05:54Z</time>
      </trkpt>
      <trkpt lat="43.26793" lon="5.64058">
        <ele>267</ele>
        <time>2021-06-02T09:06:08Z</time>
      </trkpt>
      <trkpt lat="43.26792" lon="5.64044">
        <ele>267.7</ele>
        <time>2021-06-02T09:09:54Z</time>
      </trkpt>
      <trkpt lat="43.2679" lon="5.6403">
        <ele>268.9</ele>
        <time>2021-06-02T09:10:04Z</time>
      </trkpt>
      <trkpt lat="43.26789" lon="5.64014">
        <ele>269.9</ele>
        <time>2021-06-02T09:10:16Z</time>
      </trkpt>
      <trkpt lat="43.2679" lon="5.63997">
        <ele>270.5</ele>
        <time>2021-06-02T09:10:28Z</time>
      </trkpt>
      <trkpt lat="43.26788" lon="5.63981">
        <ele>271.7</ele>
        <time>2021-06-02T09:10:40Z</time>
      </trkpt>
      <trkpt lat="43.2679" lon="5.63964">
        <ele>272</ele>
        <time>2021-06-02T09:10:52Z</time>
      </trkpt>
      <trkpt lat="43.26791" lon="5.63948">
        <ele>272.6</ele>
        <time>2021-06-02T09:11:04Z</time>
      </trkpt>
      <trkpt lat="43.2679" lon="5.63933">
        <ele>273.6</ele>
        <time>2021-06-02T09:11:16Z</time>
      </trkpt>
      <trkpt lat="43.26789" lon="5.63916">
        <ele>274.7</ele>
        <time>2021-06-02T09:11:28Z</time>
      </trkpt>
      <trkpt lat="43.26788" lon="5.63898">
        <ele>275.4</ele>
        <time>2021-06-02T09:11:40Z</time>
      </trkpt>
      <trkpt lat="43.26787" lon="5.63883">
        <ele>276.1</ele>
        <time>2021-06-02T09:11:50Z</time>
      </trkpt>
      <trkpt lat="43.26782" lon="5.63868">
        <ele>277.8</ele>
        <time>2021-06-02T09:12:02Z</time>
      </trkpt>
      <trkpt lat="43.26773" lon="5.63856">
        <ele>279.9</ele>
        <time>2021-06-02T09:12:14Z</time>
      </trkpt>
      <trkpt lat="43.26766" lon="5.63843">
        <ele>281.6</ele>
        <time>2021-06-02T09:12:26Z</time>
      </trkpt>
      <trkpt lat="43.26767" lon="5.63829">
        <ele>282.1</ele>
        <time>2021-06-02T09:12:38Z</time>
      </trkpt>
      <trkpt lat="43.26767" lon="5.63815">
        <ele>282.7</ele>
        <time>2021-06-02T09:12:50Z</time>
      </trkpt>
      <trkpt lat="43.26769" lon="5.638">
        <ele>283.2</ele>
        <time>2021-06-02T09:13:02Z</time>
      </trkpt>
      <trkpt lat="43.26767" lon="5.63785">
        <ele>284.2</ele>
        <time>2021-06-02T09:13:14Z</time>
      </trkpt>
      <trkpt lat="43.26763" lon="5.6377">
        <ele>285.7</ele>
        <time>2021-06-02T09:13:26Z</time>
      </trkpt>
      <trkpt lat="43.26759" lon="5.63755">
        <ele>287.2</ele>
        <time>2021-06-02T09:13:38Z</time>
      </trkpt>
      <trkpt lat="43.26756" lon="5.63739">
        <ele>288.5</ele>
        <time>2021-06-02T09:13:50Z</time>
      </trkpt>
      <trkpt lat="43.26754" lon="5.63723">
        <ele>289.7</ele>
        <time>2021-06-02T09:14:02Z</time>
      </trkpt>
      <trkpt lat="43.26753" lon="5.63708">
        <ele>290.6</ele>
        <time>2021-06-02T09:14:14Z</time>
      </trkpt>
      <trkpt lat="43.26754" lon="5.63691">
        <ele>291.2</ele>
        <time>2021-06-02T09:14:26Z</time>
      </trkpt>
      <trkpt lat="43.26755" lon="5.63676">
        <ele>292</ele>
        <time>2021-06-02T09:14:38Z</time>
      </trkpt>
      <trkpt lat="43.26755" lon="5.6366">
        <ele>292.9</ele>
        <time>2021-06-02T09:14:50Z</time>
      </trkpt>
      <trkpt lat="43.26754" lon="5.63642">
        <ele>294.1</ele>
        <time>2021-06-02T09:15:02Z</time>
      </trkpt>
      <trkpt lat="43.26757" lon="5.63627">
        <ele>294.8</ele>
        <time>2021-06-02T09:15:14Z</time>
      </trkpt>
      <trkpt lat="43.26768" lon="5.63621">
        <ele>293.7</ele>
        <time>2021-06-02T09:15:26Z</time>
      </trkpt>
      <trkpt lat="43.26779" lon="5.63624">
        <ele>291.9</ele>
        <time>2021-06-02T09:15:38Z</time>
      </trkpt>
      <trkpt lat="43.26785" lon="5.63612">
        <ele>291.6</ele>
        <time>2021-06-02T09:15:50Z</time>
      </trkpt>
      <trkpt lat="43.26785" lon="5.63597">
        <ele>292.4</ele>
        <time>2021-06-02T09:16:00Z</time>
      </trkpt>
      <trkpt lat="43.26785" lon="5.63582">
        <ele>293.3</ele>
        <time>2021-06-02T09:16:12Z</time>
      </trkpt>
      <trkpt lat="43.26784" lon="5.63568">
        <ele>294</ele>
        <time>2021-06-02T09:16:24Z</time>
      </trkpt>
      <trkpt lat="43.26783" lon="5.63552">
        <ele>295</ele>
        <time>2021-06-02T09:16:36Z</time>
      </trkpt>
      <trkpt lat="43.26782" lon="5.63538">
        <ele>295.8</ele>
        <time>2021-06-02T09:16:48Z</time>
      </trkpt>
      <trkpt lat="43.2678" lon="5.63522">
        <ele>296.8</ele>
        <time>2021-06-02T09:17:00Z</time>
      </trkpt>
      <trkpt lat="43.26779" lon="5.6351">
        <ele>297.7</ele>
        <time>2021-06-02T09:18:20Z</time>
      </trkpt>
      <trkpt lat="43.26773" lon="5.63498">
        <ele>299.4</ele>
        <time>2021-06-02T09:19:26Z</time>
      </trkpt>
      <trkpt lat="43.26771" lon="5.63487">
        <ele>300.6</ele>
        <time>2021-06-02T09:21:08Z</time>
      </trkpt>
      <trkpt lat="43.26767" lon="5.63473">
        <ele>302.5</ele>
        <time>2021-06-02T09:21:20Z</time>
      </trkpt>
      <trkpt lat="43.26767" lon="5.63457">
        <ele>303.7</ele>
        <time>2021-06-02T09:21:34Z</time>
      </trkpt>
      <trkpt lat="43.26767" lon="5.63442">
        <ele>304.8</ele>
        <time>2021-06-02T09:21:48Z</time>
      </trkpt>
      <trkpt lat="43.2677" lon="5.63428">
        <ele>305.2</ele>
        <time>2021-06-02T09:22:00Z</time>
      </trkpt>
      <trkpt lat="43.26772" lon="5.63413">
        <ele>305.6</ele>
        <time>2021-06-02T09:22:12Z</time>
      </trkpt>
      <trkpt lat="43.26774" lon="5.63397">
        <ele>306</ele>
        <time>2021-06-02T09:22:24Z</time>
      </trkpt>
      <trkpt lat="43.26775" lon="5.63381">
        <ele>306.7</ele>
        <time>2021-06-02T09:22:36Z</time>
      </trkpt>
      <trkpt lat="43.26776" lon="5.63366">
        <ele>307.3</ele>
        <time>2021-06-02T09:22:48Z</time>
      </trkpt>
      <trkpt lat="43.26776" lon="5.6335">
        <ele>308.2</ele>
        <time>2021-06-02T09:23:00Z</time>
      </trkpt>
      <trkpt lat="43.26776" lon="5.63334">
        <ele>309.1</ele>
        <time>2021-06-02T09:23:12Z</time>
      </trkpt>
      <trkpt lat="43.26775" lon="5.63316">
        <ele>311.1</ele>
        <time>2021-06-02T09:23:24Z</time>
      </trkpt>
      <trkpt lat="43.26774" lon="5.633">
        <ele>313.2</ele>
        <time>2021-06-02T09:23:36Z</time>
      </trkpt>
      <trkpt lat="43.26774" lon="5.63283">
        <ele>315</ele>
        <time>2021-06-02T09:23:48Z</time>
      </trkpt>
      <trkpt lat="43.26777" lon="5.63267">
        <ele>315.9</ele>
        <time>2021-06-02T09:24:00Z</time>
      </trkpt>
      <trkpt lat="43.26781" lon="5.63253">
        <ele>316.7</ele>
        <time>2021-06-02T09:24:10Z</time>
      </trkpt>
      <trkpt lat="43.26786" lon="5.63238">
        <ele>317.2</ele>
        <time>2021-06-02T09:24:22Z</time>
      </trkpt>
      <trkpt lat="43.26791" lon="5.63224">
        <ele>317.4</ele>
        <time>2021-06-02T09:24:34Z</time>
      </trkpt>
      <trkpt lat="43.26798" lon="5.63211">
        <ele>317</ele>
        <time>2021-06-02T09:24:46Z</time>
      </trkpt>
      <trkpt lat="43.26803" lon="5.632">
        <ele>316.8</ele>
        <time>2021-06-02T09:24:54Z</time>
      </trkpt>
      <trkpt lat="43.26808" lon="5.63187">
        <ele>316.8</ele>
        <time>2021-06-02T09:25:06Z</time>
      </trkpt>
      <trkpt lat="43.26811" lon="5.63173">
        <ele>317.4</ele>
        <time>2021-06-02T09:25:18Z</time>
      </trkpt>
      <trkpt lat="43.26801" lon="5.63173">
        <ele>319.8</ele>
        <time>2021-06-02T09:25:28Z</time>
      </trkpt>
      <trkpt lat="43.26795" lon="5.63187">
        <ele>320.1</ele>
        <time>2021-06-02T09:25:40Z</time>
      </trkpt>
      <trkpt lat="43.26789" lon="5.63201">
        <ele>320.2</ele>
        <time>2021-06-02T09:25:52Z</time>
      </trkpt>
      <trkpt lat="43.26781" lon="5.6321">
        <ele>321.3</ele>
        <time>2021-06-02T09:26:04Z</time>
      </trkpt>
      <trkpt lat="43.2677" lon="5.6322">
        <ele>322.8</ele>
        <time>2021-06-02T09:26:16Z</time>
      </trkpt>
      <trkpt lat="43.2676" lon="5.63229">
        <ele>324.1</ele>
        <time>2021-06-02T09:26:28Z</time>
      </trkpt>
      <trkpt lat="43.26751" lon="5.63237">
        <ele>325.3</ele>
        <time>2021-06-02T09:26:40Z</time>
      </trkpt>
      <trkpt lat="43.26742" lon="5.63247">
        <ele>325.2</ele>
        <time>2021-06-02T09:26:52Z</time>
      </trkpt>
      <trkpt lat="43.26733" lon="5.63255">
        <ele>325.2</ele>
        <time>2021-06-02T09:27:04Z</time>
      </trkpt>
      <trkpt lat="43.26724" lon="5.63263">
        <ele>325.5</ele>
        <time>2021-06-02T09:27:16Z</time>
      </trkpt>
      <trkpt lat="43.26714" lon="5.63269">
        <ele>325.8</ele>
        <time>2021-06-02T09:27:28Z</time>
      </trkpt>
      <trkpt lat="43.26705" lon="5.63275">
        <ele>326.2</ele>
        <time>2021-06-02T09:27:42Z</time>
      </trkpt>
      <trkpt lat="43.26693" lon="5.63271">
        <ele>327.9</ele>
        <time>2021-06-02T09:33:36Z</time>
      </trkpt>
      <trkpt lat="43.26683" lon="5.63266">
        <ele>329.5</ele>
        <time>2021-06-02T09:33:48Z</time>
      </trkpt>
      <trkpt lat="43.26671" lon="5.63266">
        <ele>330.8</ele>
        <time>2021-06-02T09:34:00Z</time>
      </trkpt>
      <trkpt lat="43.26667" lon="5.63277">
        <ele>330</ele>
        <time>2021-06-02T09:34:16Z</time>
      </trkpt>
      <trkpt lat="43.2666" lon="5.63288">
        <ele>327.2</ele>
        <time>2021-06-02T09:34:32Z</time>
      </trkpt>
      <trkpt lat="43.2665" lon="5.63292">
        <ele>324</ele>
        <time>2021-06-02T09:34:46Z</time>
      </trkpt>
      <trkpt lat="43.26645" lon="5.63279">
        <ele>323.7</ele>
        <time>2021-06-02T09:35:00Z</time>
      </trkpt>
      <trkpt lat="43.26639" lon="5.63269">
        <ele>323.1</ele>
        <time>2021-06-02T09:35:16Z</time>
      </trkpt>
      <trkpt lat="43.26647" lon="5.63258">
        <ele>326.3</ele>
        <time>2021-06-02T09:40:42Z</time>
      </trkpt>
      <trkpt lat="43.26651" lon="5.63245">
        <ele>328.8</ele>
        <time>2021-06-02T09:40:54Z</time>
      </trkpt>
      <trkpt lat="43.26655" lon="5.63231">
        <ele>332.1</ele>
        <time>2021-06-02T09:41:08Z</time>
      </trkpt>
      <trkpt lat="43.26662" lon="5.6322">
        <ele>335.5</ele>
        <time>2021-06-02T09:41:20Z</time>
      </trkpt>
      <trkpt lat="43.26668" lon="5.63208">
        <ele>338.5</ele>
        <time>2021-06-02T09:41:34Z</time>
      </trkpt>
      <trkpt lat="43.26677" lon="5.63208">
        <ele>337.4</ele>
        <time>2021-06-02T09:41:44Z</time>
      </trkpt>
      <trkpt lat="43.26684" lon="5.63217">
        <ele>335.3</ele>
        <time>2021-06-02T09:41:52Z</time>
      </trkpt>
      <trkpt lat="43.26694" lon="5.63223">
        <ele>333.6</ele>
        <time>2021-06-02T09:42:02Z</time>
      </trkpt>
      <trkpt lat="43.26702" lon="5.63211">
        <ele>334.1</ele>
        <time>2021-06-02T09:42:12Z</time>
      </trkpt>
      <trkpt lat="43.26708" lon="5.63196">
        <ele>335.4</ele>
        <time>2021-06-02T09:42:24Z</time>
      </trkpt>
      <trkpt lat="43.26713" lon="5.63181">
        <ele>336.7</ele>
        <time>2021-06-02T09:42:36Z</time>
      </trkpt>
      <trkpt lat="43.26714" lon="5.63167">
        <ele>338.3</ele>
        <time>2021-06-02T09:42:48Z</time>
      </trkpt>
      <trkpt lat="43.26717" lon="5.63153">
        <ele>340</ele>
        <time>2021-06-02T09:43:00Z</time>
      </trkpt>
      <trkpt lat="43.26721" lon="5.63139">
        <ele>341.5</ele>
        <time>2021-06-02T09:43:12Z</time>
      </trkpt>
      <trkpt lat="43.26725" lon="5.63126">
        <ele>343.1</ele>
        <time>2021-06-02T09:43:24Z</time>
      </trkpt>
      <trkpt lat="43.2673" lon="5.63111">
        <ele>344.9</ele>
        <time>2021-06-02T09:43:36Z</time>
      </trkpt>
      <trkpt lat="43.26732" lon="5.63097">
        <ele>347</ele>
        <time>2021-06-02T09:43:50Z</time>
      </trkpt>
      <trkpt lat="43.26739" lon="5.63083">
        <ele>348.7</ele>
        <time>2021-06-02T09:44:02Z</time>
      </trkpt>
      <trkpt lat="43.26745" lon="5.63073">
        <ele>349</ele>
        <time>2021-06-02T09:44:14Z</time>
      </trkpt>
      <trkpt lat="43.2675" lon="5.63063">
        <ele>349.3</ele>
        <time>2021-06-02T09:44:26Z</time>
      </trkpt>
      <trkpt lat="43.2675" lon="5.63049">
        <ele>350.5</ele>
        <time>2021-06-02T09:44:38Z</time>
      </trkpt>
      <trkpt lat="43.2675" lon="5.63035">
        <ele>351.5</ele>
        <time>2021-06-02T09:44:50Z</time>
      </trkpt>
      <trkpt lat="43.2675" lon="5.63021">
        <ele>352.3</ele>
        <time>2021-06-02T09:45:02Z</time>
      </trkpt>
      <trkpt lat="43.26749" lon="5.63008">
        <ele>353.5</ele>
        <time>2021-06-02T09:45:16Z</time>
      </trkpt>
      <trkpt lat="43.26741" lon="5.62999">
        <ele>355</ele>
        <time>2021-06-02T09:45:32Z</time>
      </trkpt>
      <trkpt lat="43.26731" lon="5.62999">
        <ele>356.1</ele>
        <time>2021-06-02T09:45:42Z</time>
      </trkpt>
      <trkpt lat="43.26721" lon="5.62996">
        <ele>357.3</ele>
        <time>2021-06-02T09:45:54Z</time>
      </trkpt>
      <trkpt lat="43.26713" lon="5.62984">
        <ele>358.6</ele>
        <time>2021-06-02T09:46:06Z</time>
      </trkpt>
      <trkpt lat="43.26714" lon="5.62971">
        <ele>359</ele>
        <time>2021-06-02T09:46:16Z</time>
      </trkpt>
      <trkpt lat="43.26715" lon="5.6296">
        <ele>359.3</ele>
        <time>2021-06-02T09:46:40Z</time>
      </trkpt>
      <trkpt lat="43.26723" lon="5.62952">
        <ele>358.7</ele>
        <time>2021-06-02T09:46:54Z</time>
      </trkpt>
      <trkpt lat="43.26731" lon="5.62943">
        <ele>357.9</ele>
        <time>2021-06-02T09:47:08Z</time>
      </trkpt>
      <trkpt lat="43.26734" lon="5.6293">
        <ele>357.8</ele>
        <time>2021-06-02T09:47:22Z</time>
      </trkpt>
      <trkpt lat="43.26734" lon="5.62916">
        <ele>358.3</ele>
        <time>2021-06-02T09:48:16Z</time>
      </trkpt>
      <trkpt lat="43.26733" lon="5.62902">
        <ele>357.8</ele>
        <time>2021-06-02T09:48:30Z</time>
      </trkpt>
      <trkpt lat="43.26731" lon="5.62886">
        <ele>357.3</ele>
        <time>2021-06-02T09:48:42Z</time>
      </trkpt>
      <trkpt lat="43.2673" lon="5.6287">
        <ele>356.8</ele>
        <time>2021-06-02T09:48:54Z</time>
      </trkpt>
      <trkpt lat="43.26727" lon="5.62854">
        <ele>356.5</ele>
        <time>2021-06-02T09:49:06Z</time>
      </trkpt>
      <trkpt lat="43.26725" lon="5.62838">
        <ele>356.1</ele>
        <time>2021-06-02T09:49:18Z</time>
      </trkpt>
      <trkpt lat="43.26723" lon="5.62824">
        <ele>356</ele>
        <time>2021-06-02T09:49:28Z</time>
      </trkpt>
      <trkpt lat="43.26721" lon="5.62807">
        <ele>355.8</ele>
        <time>2021-06-02T09:49:40Z</time>
      </trkpt>
      <trkpt lat="43.26719" lon="5.6279">
        <ele>355.8</ele>
        <time>2021-06-02T09:49:52Z</time>
      </trkpt>
      <trkpt lat="43.26717" lon="5.62774">
        <ele>355.6</ele>
        <time>2021-06-02T09:50:04Z</time>
      </trkpt>
      <trkpt lat="43.26717" lon="5.62759">
        <ele>355.4</ele>
        <time>2021-06-02T09:50:14Z</time>
      </trkpt>
      <trkpt lat="43.26717" lon="5.62746">
        <ele>354.9</ele>
        <time>2021-06-02T09:50:22Z</time>
      </trkpt>
      <trkpt lat="43.26715" lon="5.6273">
        <ele>353.8</ele>
        <time>2021-06-02T09:50:34Z</time>
      </trkpt>
      <trkpt lat="43.26713" lon="5.62713">
        <ele>353.1</ele>
        <time>2021-06-02T09:50:46Z</time>
      </trkpt>
      <trkpt lat="43.2671" lon="5.62697">
        <ele>352.4</ele>
        <time>2021-06-02T09:50:58Z</time>
      </trkpt>
      <trkpt lat="43.26705" lon="5.62683">
        <ele>352.7</ele>
        <time>2021-06-02T09:51:10Z</time>
      </trkpt>
      <trkpt lat="43.26694" lon="5.62682">
        <ele>355.2</ele>
        <time>2021-06-02T09:51:20Z</time>
      </trkpt>
      <trkpt lat="43.26685" lon="5.6268">
        <ele>357.4</ele>
        <time>2021-06-02T09:51:28Z</time>
      </trkpt>
      <trkpt lat="43.26676" lon="5.62668">
        <ele>358.6</ele>
        <time>2021-06-02T09:51:40Z</time>
      </trkpt>
      <trkpt lat="43.26671" lon="5.62652">
        <ele>359.1</ele>
        <time>2021-06-02T09:51:52Z</time>
      </trkpt>
      <trkpt lat="43.26667" lon="5.62637">
        <ele>359.1</ele>
        <time>2021-06-02T09:52:04Z</time>
      </trkpt>
      <trkpt lat="43.26664" lon="5.62622">
        <ele>358.4</ele>
        <time>2021-06-02T09:52:14Z</time>
      </trkpt>
      <trkpt lat="43.26661" lon="5.6261">
        <ele>357.9</ele>
        <time>2021-06-02T09:52:22Z</time>
      </trkpt>
      <trkpt lat="43.26657" lon="5.62593">
        <ele>357.3</ele>
        <time>2021-06-02T09:52:34Z</time>
      </trkpt>
      <trkpt lat="43.26653" lon="5.62581">
        <ele>357</ele>
        <time>2021-06-02T09:52:42Z</time>
      </trkpt>
      <trkpt lat="43.26651" lon="5.62564">
        <ele>356.1</ele>
        <time>2021-06-02T09:52:54Z</time>
      </trkpt>
      <trkpt lat="43.26648" lon="5.62547">
        <ele>355.4</ele>
        <time>2021-06-02T09:53:06Z</time>
      </trkpt>
      <trkpt lat="43.26642" lon="5.62531">
        <ele>355</ele>
        <time>2021-06-02T09:53:18Z</time>
      </trkpt>
      <trkpt lat="43.26639" lon="5.62519">
        <ele>354.7</ele>
        <time>2021-06-02T09:53:26Z</time>
      </trkpt>
      <trkpt lat="43.26634" lon="5.62505">
        <ele>354.6</ele>
        <time>2021-06-02T09:53:36Z</time>
      </trkpt>
      <trkpt lat="43.26628" lon="5.62492">
        <ele>355.1</ele>
        <time>2021-06-02T09:53:46Z</time>
      </trkpt>
      <trkpt lat="43.26624" lon="5.62477">
        <ele>355.6</ele>
        <time>2021-06-02T09:53:56Z</time>
      </trkpt>
      <trkpt lat="43.26616" lon="5.6247">
        <ele>356.6</ele>
        <time>2021-06-02T09:54:06Z</time>
      </trkpt>
      <trkpt lat="43.26606" lon="5.62473">
        <ele>357.8</ele>
        <time>2021-06-02T09:54:14Z</time>
      </trkpt>
      <trkpt lat="43.26595" lon="5.62481">
        <ele>359.3</ele>
        <time>2021-06-02T09:54:26Z</time>
      </trkpt>
      <trkpt lat="43.26585" lon="5.62488">
        <ele>360.7</ele>
        <time>2021-06-02T09:54:36Z</time>
      </trkpt>
      <trkpt lat="43.26576" lon="5.62491">
        <ele>358.8</ele>
        <time>2021-06-02T09:54:46Z</time>
      </trkpt>
      <trkpt lat="43.26567" lon="5.62496">
        <ele>356.5</ele>
        <time>2021-06-02T10:00:00Z</time>
      </trkpt>
      <trkpt lat="43.26568" lon="5.62496">
        <ele>356.7</ele>
        <time>2021-06-02T10:04:48Z</time>
      </trkpt>
      <trkpt lat="43.26566" lon="5.62511">
        <ele>356.3</ele>
        <time>2021-06-02T10:04:56Z</time>
      </trkpt>
      <trkpt lat="43.26563" lon="5.62523">
        <ele>355.4</ele>
        <time>2021-06-02T10:05:04Z</time>
      </trkpt>
      <trkpt lat="43.26561" lon="5.62537">
        <ele>354.7</ele>
        <time>2021-06-02T10:05:14Z</time>
      </trkpt>
      <trkpt lat="43.26558" lon="5.62551">
        <ele>353.6</ele>
        <time>2021-06-02T10:05:26Z</time>
      </trkpt>
      <trkpt lat="43.26557" lon="5.62567">
        <ele>353</ele>
        <time>2021-06-02T10:05:38Z</time>
      </trkpt>
      <trkpt lat="43.26555" lon="5.6258">
        <ele>352.3</ele>
        <time>2021-06-02T10:05:50Z</time>
      </trkpt>
      <trkpt lat="43.26552" lon="5.62597">
        <ele>350.4</ele>
        <time>2021-06-02T10:06:02Z</time>
      </trkpt>
      <trkpt lat="43.26552" lon="5.62612">
        <ele>349.7</ele>
        <time>2021-06-02T10:06:14Z</time>
      </trkpt>
      <trkpt lat="43.26548" lon="5.62627">
        <ele>347.5</ele>
        <time>2021-06-02T10:06:28Z</time>
      </trkpt>
      <trkpt lat="43.26546" lon="5.62644">
        <ele>346.2</ele>
        <time>2021-06-02T10:06:40Z</time>
      </trkpt>
      <trkpt lat="43.26549" lon="5.62657">
        <ele>346.7</ele>
        <time>2021-06-02T10:06:54Z</time>
      </trkpt>
      <trkpt lat="43.2655" lon="5.62672">
        <ele>346.8</ele>
        <time>2021-06-02T10:07:10Z</time>
      </trkpt>
      <trkpt lat="43.26551" lon="5.62687">
        <ele>347</ele>
        <time>2021-06-02T10:07:22Z</time>
      </trkpt>
      <trkpt lat="43.26554" lon="5.62701">
        <ele>347.9</ele>
        <time>2021-06-02T10:07:34Z</time>
      </trkpt>
      <trkpt lat="43.26557" lon="5.62718">
        <ele>349.1</ele>
        <time>2021-06-02T10:07:46Z</time>
      </trkpt>
      <trkpt lat="43.2656" lon="5.62733">
        <ele>350.2</ele>
        <time>2021-06-02T10:07:58Z</time>
      </trkpt>
      <trkpt lat="43.26561" lon="5.62746">
        <ele>350.7</ele>
        <time>2021-06-02T10:08:10Z</time>
      </trkpt>
      <trkpt lat="43.26563" lon="5.62761">
        <ele>351.1</ele>
        <time>2021-06-02T10:08:22Z</time>
      </trkpt>
      <trkpt lat="43.26564" lon="5.62774">
        <ele>351.6</ele>
        <time>2021-06-02T10:08:38Z</time>
      </trkpt>
      <trkpt lat="43.26571" lon="5.62784">
        <ele>353.9</ele>
        <time>2021-06-02T10:09:04Z</time>
      </trkpt>
      <trkpt lat="43.26563" lon="5.62787">
        <ele>350.9</ele>
        <time>2021-06-02T10:09:36Z</time>
      </trkpt>
      <trkpt lat="43.26564" lon="5.62801">
        <ele>351.2</ele>
        <time>2021-06-02T10:09:54Z</time>
      </trkpt>
      <trkpt lat="43.26571" lon="5.6281">
        <ele>353.4</ele>
        <time>2021-06-02T10:10:22Z</time>
      </trkpt>
      <trkpt lat="43.2657" lon="5.62824">
        <ele>352.8</ele>
        <time>2021-06-02T10:10:48Z</time>
      </trkpt>
      <trkpt lat="43.26577" lon="5.62832">
        <ele>354.9</ele>
        <time>2021-06-02T10:11:42Z</time>
      </trkpt>
      <trkpt lat="43.26584" lon="5.62843">
        <ele>356.8</ele>
        <time>2021-06-02T10:12:04Z</time>
      </trkpt>
      <trkpt lat="43.26585" lon="5.62857">
        <ele>356.7</ele>
        <time>2021-06-02T10:12:34Z</time>
      </trkpt>
      <trkpt lat="43.26593" lon="5.62866">
        <ele>357.4</ele>
        <time>2021-06-02T10:13:28Z</time>
      </trkpt>
      <trkpt lat="43.26594" lon="5.62869">
        <ele>357.5</ele>
        <time>2021-06-02T10:13:40Z</time>
      </trkpt>
      <trkpt lat="43.26583" lon="5.6288">
        <ele>355.9</ele>
        <time>2021-06-02T10:13:48Z</time>
      </trkpt>
      <trkpt lat="43.2658" lon="5.62892">
        <ele>354.6</ele>
        <time>2021-06-02T10:13:58Z</time>
      </trkpt>
      <trkpt lat="43.26584" lon="5.62903">
        <ele>355.4</ele>
        <time>2021-06-02T10:14:16Z</time>
      </trkpt>
      <trkpt lat="43.26581" lon="5.62917">
        <ele>354.4</ele>
        <time>2021-06-02T10:14:30Z</time>
      </trkpt>
      <trkpt lat="43.26577" lon="5.62932">
        <ele>350.5</ele>
        <time>2021-06-02T10:14:40Z</time>
      </trkpt>
      <trkpt lat="43.26572" lon="5.62944">
        <ele>347</ele>
        <time>2021-06-02T10:14:52Z</time>
      </trkpt>
      <trkpt lat="43.26567" lon="5.62959">
        <ele>343.6</ele>
        <time>2021-06-02T10:15:06Z</time>
      </trkpt>
      <trkpt lat="43.26578" lon="5.62958">
        <ele>346.6</ele>
        <time>2021-06-02T10:15:54Z</time>
      </trkpt>
      <trkpt lat="43.26575" lon="5.62946">
        <ele>347.8</ele>
        <time>2021-06-02T10:16:34Z</time>
      </trkpt>
      <trkpt lat="43.26569" lon="5.62937">
        <ele>347.4</ele>
        <time>2021-06-02T10:16:50Z</time>
      </trkpt>
      <trkpt lat="43.26557" lon="5.62936">
        <ele>343.9</ele>
        <time>2021-06-02T10:17:18Z</time>
      </trkpt>
      <trkpt lat="43.26578" lon="5.62938">
        <ele>349.7</ele>
        <time>2021-06-02T10:17:47Z</time>
      </trkpt>
      <trkpt lat="43.26594" lon="5.62943">
        <ele>352.6</ele>
        <time>2021-06-02T10:17:50Z</time>
      </trkpt>
      <trkpt lat="43.26592" lon="5.62944">
        <ele>352</ele>
        <time>2021-06-02T10:18:12Z</time>
      </trkpt>
      <trkpt lat="43.26579" lon="5.62937">
        <ele>350.5</ele>
        <time>2021-06-02T10:18:34Z</time>
      </trkpt>
      <trkpt lat="43.2658" lon="5.62938">
        <ele>350.4</ele>
        <time>2021-06-02T10:18:49Z</time>
      </trkpt>
      <trkpt lat="43.2658" lon="5.62941">
        <ele>350</ele>
        <time>2021-06-02T10:23:48Z</time>
      </trkpt>
      <trkpt lat="43.2657" lon="5.62943">
        <ele>346.8</ele>
        <time>2021-06-02T10:24:48Z</time>
      </trkpt>
      <trkpt lat="43.2656" lon="5.62941">
        <ele>344.2</ele>
        <time>2021-06-02T10:26:58Z</time>
      </trkpt>
      <trkpt lat="43.2655" lon="5.62936">
        <ele>342</ele>
        <time>2021-06-02T10:27:08Z</time>
      </trkpt>
      <trkpt lat="43.2656" lon="5.62931">
        <ele>345.5</ele>
        <time>2021-06-02T10:27:28Z</time>
      </trkpt>
      <trkpt lat="43.26565" lon="5.62943">
        <ele>345.3</ele>
        <time>2021-06-02T10:27:52Z</time>
      </trkpt>
      <trkpt lat="43.26567" lon="5.62951">
        <ele>344.7</ele>
        <time>2021-06-02T10:28:16Z</time>
      </trkpt>
      <trkpt lat="43.26567" lon="5.62947">
        <ele>345.3</ele>
        <time>2021-06-02T10:28:36Z</time>
      </trkpt>
      <trkpt lat="43.26571" lon="5.62949">
        <ele>346.3</ele>
        <time>2021-06-02T10:29:12Z</time>
      </trkpt>
      <trkpt lat="43.26581" lon="5.62942">
        <ele>350.1</ele>
        <time>2021-06-02T10:29:30Z</time>
      </trkpt>
      <trkpt lat="43.26587" lon="5.62932">
        <ele>353.1</ele>
        <time>2021-06-02T10:29:44Z</time>
      </trkpt>
      <trkpt lat="43.26585" lon="5.62916">
        <ele>355.3</ele>
        <time>2021-06-02T10:30:06Z</time>
      </trkpt>
      <trkpt lat="43.26587" lon="5.62903">
        <ele>355.8</ele>
        <time>2021-06-02T10:30:20Z</time>
      </trkpt>
      <trkpt lat="43.26591" lon="5.62895">
        <ele>356.7</ele>
        <time>2021-06-02T10:30:38Z</time>
      </trkpt>
      <trkpt lat="43.26595" lon="5.62881">
        <ele>357.4</ele>
        <time>2021-06-02T10:31:06Z</time>
      </trkpt>
      <trkpt lat="43.26599" lon="5.62868">
        <ele>358.1</ele>
        <time>2021-06-02T10:31:20Z</time>
      </trkpt>
      <trkpt lat="43.26597" lon="5.62853">
        <ele>358</ele>
        <time>2021-06-02T10:31:36Z</time>
      </trkpt>
      <trkpt lat="43.26597" lon="5.6285">
        <ele>358.1</ele>
        <time>2021-06-02T10:31:54Z</time>
      </trkpt>
      <trkpt lat="43.26596" lon="5.62836">
        <ele>358.2</ele>
        <time>2021-06-02T10:32:22Z</time>
      </trkpt>
      <trkpt lat="43.26589" lon="5.62828">
        <ele>357.7</ele>
        <time>2021-06-02T10:32:32Z</time>
      </trkpt>
      <trkpt lat="43.2658" lon="5.62824">
        <ele>356.1</ele>
        <time>2021-06-02T10:33:08Z</time>
      </trkpt>
      <trkpt lat="43.26571" lon="5.62816">
        <ele>353.2</ele>
        <time>2021-06-02T10:33:26Z</time>
      </trkpt>
      <trkpt lat="43.26566" lon="5.62806">
        <ele>351.8</ele>
        <time>2021-06-02T10:33:40Z</time>
      </trkpt>
      <trkpt lat="43.26567" lon="5.62792">
        <ele>352.2</ele>
        <time>2021-06-02T10:33:52Z</time>
      </trkpt>
      <trkpt lat="43.26569" lon="5.62777">
        <ele>353.3</ele>
        <time>2021-06-02T10:34:04Z</time>
      </trkpt>
      <trkpt lat="43.26568" lon="5.62763">
        <ele>353.2</ele>
        <time>2021-06-02T10:34:14Z</time>
      </trkpt>
      <trkpt lat="43.26564" lon="5.62746">
        <ele>351.8</ele>
        <time>2021-06-02T10:34:26Z</time>
      </trkpt>
      <trkpt lat="43.26559" lon="5.62732">
        <ele>349.8</ele>
        <time>2021-06-02T10:34:38Z</time>
      </trkpt>
      <trkpt lat="43.26555" lon="5.62716">
        <ele>348.4</ele>
        <time>2021-06-02T10:34:50Z</time>
      </trkpt>
      <trkpt lat="43.26553" lon="5.627">
        <ele>347.8</ele>
        <time>2021-06-02T10:35:02Z</time>
      </trkpt>
      <trkpt lat="43.26552" lon="5.62685">
        <ele>347.4</ele>
        <time>2021-06-02T10:35:12Z</time>
      </trkpt>
      <trkpt lat="43.26551" lon="5.6267">
        <ele>347</ele>
        <time>2021-06-02T10:35:22Z</time>
      </trkpt>
      <trkpt lat="43.2655" lon="5.62656">
        <ele>347.2</ele>
        <time>2021-06-02T10:35:30Z</time>
      </trkpt>
      <trkpt lat="43.26549" lon="5.62638">
        <ele>347.5</ele>
        <time>2021-06-02T10:35:42Z</time>
      </trkpt>
      <trkpt lat="43.2655" lon="5.62623">
        <ele>348.5</ele>
        <time>2021-06-02T10:35:54Z</time>
      </trkpt>
      <trkpt lat="43.26551" lon="5.62607">
        <ele>349.5</ele>
        <time>2021-06-02T10:36:02Z</time>
      </trkpt>
      <trkpt lat="43.26552" lon="5.62594">
        <ele>350.7</ele>
        <time>2021-06-02T10:36:10Z</time>
      </trkpt>
      <trkpt lat="43.26556" lon="5.6258">
        <ele>352.6</ele>
        <time>2021-06-02T10:36:20Z</time>
      </trkpt>
      <trkpt lat="43.26558" lon="5.62568">
        <ele>353.5</ele>
        <time>2021-06-02T10:36:30Z</time>
      </trkpt>
      <trkpt lat="43.2656" lon="5.62553">
        <ele>354.1</ele>
        <time>2021-06-02T10:36:42Z</time>
      </trkpt>
      <trkpt lat="43.26564" lon="5.6254">
        <ele>355.7</ele>
        <time>2021-06-02T10:36:52Z</time>
      </trkpt>
      <trkpt lat="43.26567" lon="5.62524">
        <ele>356.4</ele>
        <time>2021-06-02T10:37:06Z</time>
      </trkpt>
      <trkpt lat="43.26568" lon="5.6251">
        <ele>356.8</ele>
        <time>2021-06-02T10:37:18Z</time>
      </trkpt>
      <trkpt lat="43.26571" lon="5.62495">
        <ele>357.6</ele>
        <time>2021-06-02T10:37:30Z</time>
      </trkpt>
      <trkpt lat="43.26568" lon="5.62483">
        <ele>356.9</ele>
        <time>2021-06-02T10:41:00Z</time>
      </trkpt>
      <trkpt lat="43.26564" lon="5.62467">
        <ele>356.1</ele>
        <time>2021-06-02T10:41:12Z</time>
      </trkpt>
      <trkpt lat="43.2656" lon="5.6245">
        <ele>355.6</ele>
        <time>2021-06-02T10:41:24Z</time>
      </trkpt>
      <trkpt lat="43.26556" lon="5.62436">
        <ele>355.2</ele>
        <time>2021-06-02T10:41:34Z</time>
      </trkpt>
      <trkpt lat="43.26552" lon="5.62424">
        <ele>354.8</ele>
        <time>2021-06-02T10:41:42Z</time>
      </trkpt>
      <trkpt lat="43.26548" lon="5.62409">
        <ele>355.1</ele>
        <time>2021-06-02T10:41:52Z</time>
      </trkpt>
      <trkpt lat="43.26549" lon="5.62396">
        <ele>356.2</ele>
        <time>2021-06-02T10:42:00Z</time>
      </trkpt>
      <trkpt lat="43.26553" lon="5.62379">
        <ele>358</ele>
        <time>2021-06-02T10:42:12Z</time>
      </trkpt>
      <trkpt lat="43.26554" lon="5.62365">
        <ele>359.2</ele>
        <time>2021-06-02T10:42:24Z</time>
      </trkpt>
      <trkpt lat="43.26553" lon="5.62351">
        <ele>360.2</ele>
        <time>2021-06-02T10:42:40Z</time>
      </trkpt>
      <trkpt lat="43.26549" lon="5.62338">
        <ele>360.7</ele>
        <time>2021-06-02T10:42:52Z</time>
      </trkpt>
      <trkpt lat="43.26539" lon="5.62331">
        <ele>360.6</ele>
        <time>2021-06-02T10:43:04Z</time>
      </trkpt>
      <trkpt lat="43.26529" lon="5.62321">
        <ele>361</ele>
        <time>2021-06-02T10:43:16Z</time>
      </trkpt>
      <trkpt lat="43.26527" lon="5.62307">
        <ele>362.6</ele>
        <time>2021-06-02T10:43:28Z</time>
      </trkpt>
      <trkpt lat="43.26535" lon="5.62296">
        <ele>364.7</ele>
        <time>2021-06-02T10:43:40Z</time>
      </trkpt>
      <trkpt lat="43.26543" lon="5.62287">
        <ele>366.4</ele>
        <time>2021-06-02T10:43:52Z</time>
      </trkpt>
      <trkpt lat="43.26552" lon="5.62279">
        <ele>368.1</ele>
        <time>2021-06-02T10:44:04Z</time>
      </trkpt>
      <trkpt lat="43.26562" lon="5.62272">
        <ele>369.7</ele>
        <time>2021-06-02T10:44:16Z</time>
      </trkpt>
      <trkpt lat="43.26573" lon="5.62268">
        <ele>371.1</ele>
        <time>2021-06-02T10:44:28Z</time>
      </trkpt>
      <trkpt lat="43.26579" lon="5.62256">
        <ele>373</ele>
        <time>2021-06-02T10:44:46Z</time>
      </trkpt>
      <trkpt lat="43.26584" lon="5.62241">
        <ele>375</ele>
        <time>2021-06-02T10:44:58Z</time>
      </trkpt>
      <trkpt lat="43.26588" lon="5.62225">
        <ele>376</ele>
        <time>2021-06-02T10:45:10Z</time>
      </trkpt>
      <trkpt lat="43.26595" lon="5.62212">
        <ele>376.3</ele>
        <time>2021-06-02T10:45:22Z</time>
      </trkpt>
      <trkpt lat="43.26598" lon="5.62197">
        <ele>377.3</ele>
        <time>2021-06-02T10:45:34Z</time>
      </trkpt>
      <trkpt lat="43.26602" lon="5.62183">
        <ele>378.2</ele>
        <time>2021-06-02T10:45:46Z</time>
      </trkpt>
      <trkpt lat="43.26605" lon="5.62168">
        <ele>379.1</ele>
        <time>2021-06-02T10:45:56Z</time>
      </trkpt>
      <trkpt lat="43.26609" lon="5.62153">
        <ele>379.8</ele>
        <time>2021-06-02T10:46:08Z</time>
      </trkpt>
      <trkpt lat="43.26609" lon="5.62138">
        <ele>381.3</ele>
        <time>2021-06-02T10:46:20Z</time>
      </trkpt>
      <trkpt lat="43.2661" lon="5.62122">
        <ele>382.8</ele>
        <time>2021-06-02T10:46:32Z</time>
      </trkpt>
      <trkpt lat="43.26614" lon="5.62106">
        <ele>383.7</ele>
        <time>2021-06-02T10:46:44Z</time>
      </trkpt>
      <trkpt lat="43.26617" lon="5.6209">
        <ele>384.9</ele>
        <time>2021-06-02T10:46:56Z</time>
      </trkpt>
      <trkpt lat="43.26617" lon="5.62073">
        <ele>386.6</ele>
        <time>2021-06-02T10:47:08Z</time>
      </trkpt>
      <trkpt lat="43.2662" lon="5.62059">
        <ele>387.6</ele>
        <time>2021-06-02T10:47:20Z</time>
      </trkpt>
      <trkpt lat="43.26627" lon="5.62046">
        <ele>387.7</ele>
        <time>2021-06-02T10:47:32Z</time>
      </trkpt>
      <trkpt lat="43.26634" lon="5.62033">
        <ele>387.5</ele>
        <time>2021-06-02T10:47:44Z</time>
      </trkpt>
      <trkpt lat="43.2664" lon="5.6202">
        <ele>387.6</ele>
        <time>2021-06-02T10:47:54Z</time>
      </trkpt>
      <trkpt lat="43.26646" lon="5.62005">
        <ele>387.9</ele>
        <time>2021-06-02T10:48:06Z</time>
      </trkpt>
      <trkpt lat="43.26654" lon="5.61992">
        <ele>387.5</ele>
        <time>2021-06-02T10:48:18Z</time>
      </trkpt>
      <trkpt lat="43.2666" lon="5.61977">
        <ele>387.4</ele>
        <time>2021-06-02T10:48:30Z</time>
      </trkpt>
      <trkpt lat="43.26666" lon="5.61962">
        <ele>387.4</ele>
        <time>2021-06-02T10:48:40Z</time>
      </trkpt>
      <trkpt lat="43.26666" lon="5.61945">
        <ele>388.6</ele>
        <time>2021-06-02T10:48:52Z</time>
      </trkpt>
      <trkpt lat="43.26669" lon="5.61929">
        <ele>389.8</ele>
        <time>2021-06-02T10:49:04Z</time>
      </trkpt>
      <trkpt lat="43.26672" lon="5.61912">
        <ele>391.1</ele>
        <time>2021-06-02T10:49:16Z</time>
      </trkpt>
      <trkpt lat="43.26675" lon="5.61896">
        <ele>392.2</ele>
        <time>2021-06-02T10:49:28Z</time>
      </trkpt>
      <trkpt lat="43.26677" lon="5.61879">
        <ele>393.4</ele>
        <time>2021-06-02T10:49:40Z</time>
      </trkpt>
      <trkpt lat="43.2668" lon="5.61863">
        <ele>394.6</ele>
        <time>2021-06-02T10:49:52Z</time>
      </trkpt>
      <trkpt lat="43.26684" lon="5.61848">
        <ele>395.8</ele>
        <time>2021-06-02T10:50:02Z</time>
      </trkpt>
      <trkpt lat="43.26687" lon="5.61833">
        <ele>397</ele>
        <time>2021-06-02T10:50:14Z</time>
      </trkpt>
      <trkpt lat="43.26693" lon="5.61817">
        <ele>397.8</ele>
        <time>2021-06-02T10:50:26Z</time>
      </trkpt>
      <trkpt lat="43.26698" lon="5.61803">
        <ele>398.4</ele>
        <time>2021-06-02T10:50:36Z</time>
      </trkpt>
      <trkpt lat="43.26702" lon="5.61792">
        <ele>399</ele>
        <time>2021-06-02T10:50:44Z</time>
      </trkpt>
      <trkpt lat="43.26705" lon="5.61777">
        <ele>399.7</ele>
        <time>2021-06-02T10:50:54Z</time>
      </trkpt>
      <trkpt lat="43.26709" lon="5.61762">
        <ele>400.4</ele>
        <time>2021-06-02T10:51:04Z</time>
      </trkpt>
      <trkpt lat="43.26715" lon="5.61747">
        <ele>400.9</ele>
        <time>2021-06-02T10:51:16Z</time>
      </trkpt>
      <trkpt lat="43.2672" lon="5.61735">
        <ele>400.7</ele>
        <time>2021-06-02T10:51:24Z</time>
      </trkpt>
      <trkpt lat="43.26724" lon="5.61722">
        <ele>400.5</ele>
        <time>2021-06-02T10:51:34Z</time>
      </trkpt>
      <trkpt lat="43.26729" lon="5.61709">
        <ele>400.3</ele>
        <time>2021-06-02T10:51:46Z</time>
      </trkpt>
      <trkpt lat="43.26735" lon="5.61696">
        <ele>400.1</ele>
        <time>2021-06-02T10:51:58Z</time>
      </trkpt>
      <trkpt lat="43.26742" lon="5.61681">
        <ele>400</ele>
        <time>2021-06-02T10:52:10Z</time>
      </trkpt>
      <trkpt lat="43.26749" lon="5.61669">
        <ele>400</ele>
        <time>2021-06-02T10:52:20Z</time>
      </trkpt>
      <trkpt lat="43.26756" lon="5.61656">
        <ele>400.7</ele>
        <time>2021-06-02T10:52:32Z</time>
      </trkpt>
      <trkpt lat="43.26763" lon="5.61643">
        <ele>401.5</ele>
        <time>2021-06-02T10:52:42Z</time>
      </trkpt>
      <trkpt lat="43.26771" lon="5.61632">
        <ele>402.4</ele>
        <time>2021-06-02T10:52:52Z</time>
      </trkpt>
      <trkpt lat="43.26777" lon="5.61621">
        <ele>403.3</ele>
        <time>2021-06-02T10:53:02Z</time>
      </trkpt>
      <trkpt lat="43.26784" lon="5.61606">
        <ele>403.9</ele>
        <time>2021-06-02T10:53:14Z</time>
      </trkpt>
      <trkpt lat="43.26785" lon="5.61591">
        <ele>403.3</ele>
        <time>2021-06-02T10:53:26Z</time>
      </trkpt>
      <trkpt lat="43.26785" lon="5.61577">
        <ele>402.5</ele>
        <time>2021-06-02T10:53:46Z</time>
      </trkpt>
      <trkpt lat="43.26783" lon="5.61562">
        <ele>402</ele>
        <time>2021-06-02T10:54:08Z</time>
      </trkpt>
      <trkpt lat="43.26779" lon="5.61548">
        <ele>400.6</ele>
        <time>2021-06-02T10:54:18Z</time>
      </trkpt>
      <trkpt lat="43.26779" lon="5.61531">
        <ele>400.4</ele>
        <time>2021-06-02T10:54:30Z</time>
      </trkpt>
      <trkpt lat="43.26777" lon="5.61515">
        <ele>399.6</ele>
        <time>2021-06-02T10:54:42Z</time>
      </trkpt>
      <trkpt lat="43.26778" lon="5.61498">
        <ele>399.6</ele>
        <time>2021-06-02T10:54:54Z</time>
      </trkpt>
      <trkpt lat="43.26781" lon="5.61483">
        <ele>400.2</ele>
        <time>2021-06-02T10:55:04Z</time>
      </trkpt>
      <trkpt lat="43.26783" lon="5.61469">
        <ele>400.6</ele>
        <time>2021-06-02T10:55:14Z</time>
      </trkpt>
      <trkpt lat="43.26786" lon="5.61456">
        <ele>401.2</ele>
        <time>2021-06-02T10:55:22Z</time>
      </trkpt>
      <trkpt lat="43.26789" lon="5.61441">
        <ele>402.1</ele>
        <time>2021-06-02T10:55:32Z</time>
      </trkpt>
      <trkpt lat="43.26792" lon="5.61428">
        <ele>402.8</ele>
        <time>2021-06-02T10:55:40Z</time>
      </trkpt>
      <trkpt lat="43.26794" lon="5.61414">
        <ele>403.4</ele>
        <time>2021-06-02T10:55:48Z</time>
      </trkpt>
      <trkpt lat="43.26797" lon="5.61397">
        <ele>403.9</ele>
        <time>2021-06-02T10:56:00Z</time>
      </trkpt>
      <trkpt lat="43.26799" lon="5.61384">
        <ele>404</ele>
        <time>2021-06-02T10:56:08Z</time>
      </trkpt>
      <trkpt lat="43.26799" lon="5.6137">
        <ele>403.5</ele>
        <time>2021-06-02T10:56:16Z</time>
      </trkpt>
      <trkpt lat="43.26794" lon="5.61356">
        <ele>401.1</ele>
        <time>2021-06-02T10:56:24Z</time>
      </trkpt>
      <trkpt lat="43.26792" lon="5.6134">
        <ele>399.9</ele>
        <time>2021-06-02T10:56:36Z</time>
      </trkpt>
      <trkpt lat="43.26789" lon="5.61325">
        <ele>399</ele>
        <time>2021-06-02T10:56:46Z</time>
      </trkpt>
      <trkpt lat="43.26786" lon="5.61309">
        <ele>398.9</ele>
        <time>2021-06-02T10:56:56Z</time>
      </trkpt>
      <trkpt lat="43.26783" lon="5.61294">
        <ele>398.7</ele>
        <time>2021-06-02T10:57:06Z</time>
      </trkpt>
      <trkpt lat="43.26777" lon="5.6128">
        <ele>397.9</ele>
        <time>2021-06-02T10:57:16Z</time>
      </trkpt>
      <trkpt lat="43.26771" lon="5.61269">
        <ele>396.5</ele>
        <time>2021-06-02T10:57:24Z</time>
      </trkpt>
      <trkpt lat="43.26766" lon="5.61258">
        <ele>395.6</ele>
        <time>2021-06-02T10:57:32Z</time>
      </trkpt>
      <trkpt lat="43.2676" lon="5.61247">
        <ele>394.5</ele>
        <time>2021-06-02T10:57:40Z</time>
      </trkpt>
      <trkpt lat="43.26754" lon="5.61238">
        <ele>393.3</ele>
        <time>2021-06-02T10:57:48Z</time>
      </trkpt>
      <trkpt lat="43.26747" lon="5.61226">
        <ele>392.5</ele>
        <time>2021-06-02T10:57:58Z</time>
      </trkpt>
      <trkpt lat="43.26741" lon="5.61214">
        <ele>392</ele>
        <time>2021-06-02T10:58:08Z</time>
      </trkpt>
      <trkpt lat="43.26736" lon="5.612">
        <ele>391.7</ele>
        <time>2021-06-02T10:58:18Z</time>
      </trkpt>
      <trkpt lat="43.26733" lon="5.61187">
        <ele>391.9</ele>
        <time>2021-06-02T10:58:26Z</time>
      </trkpt>
      <trkpt lat="43.26727" lon="5.61175">
        <ele>391.2</ele>
        <time>2021-06-02T10:58:34Z</time>
      </trkpt>
      <trkpt lat="43.2672" lon="5.61163">
        <ele>390.1</ele>
        <time>2021-06-02T10:58:42Z</time>
      </trkpt>
      <trkpt lat="43.26715" lon="5.61152">
        <ele>388.4</ele>
        <time>2021-06-02T10:58:50Z</time>
      </trkpt>
      <trkpt lat="43.2671" lon="5.6114">
        <ele>386.8</ele>
        <time>2021-06-02T10:58:58Z</time>
      </trkpt>
      <trkpt lat="43.26706" lon="5.61126">
        <ele>385.2</ele>
        <time>2021-06-02T10:59:08Z</time>
      </trkpt>
      <trkpt lat="43.26704" lon="5.61111">
        <ele>384.6</ele>
        <time>2021-06-02T10:59:18Z</time>
      </trkpt>
      <trkpt lat="43.26706" lon="5.61098">
        <ele>385</ele>
        <time>2021-06-02T10:59:26Z</time>
      </trkpt>
      <trkpt lat="43.26711" lon="5.61087">
        <ele>386.6</ele>
        <time>2021-06-02T10:59:34Z</time>
      </trkpt>
      <trkpt lat="43.26718" lon="5.61078">
        <ele>388.9</ele>
        <time>2021-06-02T10:59:42Z</time>
      </trkpt>
      <trkpt lat="43.26725" lon="5.61068">
        <ele>391.7</ele>
        <time>2021-06-02T10:59:50Z</time>
      </trkpt>
      <trkpt lat="43.26731" lon="5.61057">
        <ele>394.1</ele>
        <time>2021-06-02T11:00:00Z</time>
      </trkpt>
      <trkpt lat="43.26734" lon="5.61044">
        <ele>395.8</ele>
        <time>2021-06-02T11:00:08Z</time>
      </trkpt>
      <trkpt lat="43.2673" lon="5.61026">
        <ele>395.6</ele>
        <time>2021-06-02T11:00:20Z</time>
      </trkpt>
      <trkpt lat="43.26724" lon="5.61015">
        <ele>393.8</ele>
        <time>2021-06-02T11:00:28Z</time>
      </trkpt>
      <trkpt lat="43.26715" lon="5.61006">
        <ele>391.1</ele>
        <time>2021-06-02T11:00:36Z</time>
      </trkpt>
      <trkpt lat="43.26705" lon="5.61">
        <ele>387.7</ele>
        <time>2021-06-02T11:00:44Z</time>
      </trkpt>
      <trkpt lat="43.26695" lon="5.60994">
        <ele>384.7</ele>
        <time>2021-06-02T11:00:52Z</time>
      </trkpt>
      <trkpt lat="43.26685" lon="5.60984">
        <ele>382.1</ele>
        <time>2021-06-02T11:01:04Z</time>
      </trkpt>
      <trkpt lat="43.26676" lon="5.6097">
        <ele>380.5</ele>
        <time>2021-06-02T11:01:16Z</time>
      </trkpt>
      <trkpt lat="43.26671" lon="5.60957">
        <ele>379.8</ele>
        <time>2021-06-02T11:01:26Z</time>
      </trkpt>
      <trkpt lat="43.26665" lon="5.60941">
        <ele>379.2</ele>
        <time>2021-06-02T11:01:38Z</time>
      </trkpt>
      <trkpt lat="43.2666" lon="5.60929">
        <ele>378.9</ele>
        <time>2021-06-02T11:01:46Z</time>
      </trkpt>
      <trkpt lat="43.26657" lon="5.60912">
        <ele>379</ele>
        <time>2021-06-02T11:01:58Z</time>
      </trkpt>
      <trkpt lat="43.26653" lon="5.609">
        <ele>378</ele>
        <time>2021-06-02T11:02:06Z</time>
      </trkpt>
      <trkpt lat="43.26652" lon="5.60883">
        <ele>377.9</ele>
        <time>2021-06-02T11:02:18Z</time>
      </trkpt>
      <trkpt lat="43.26647" lon="5.60866">
        <ele>376.6</ele>
        <time>2021-06-02T11:02:30Z</time>
      </trkpt>
      <trkpt lat="43.26644" lon="5.60849">
        <ele>376.2</ele>
        <time>2021-06-02T11:02:42Z</time>
      </trkpt>
      <trkpt lat="43.26644" lon="5.60833">
        <ele>376.2</ele>
        <time>2021-06-02T11:02:54Z</time>
      </trkpt>
      <trkpt lat="43.26643" lon="5.60815">
        <ele>375.1</ele>
        <time>2021-06-02T11:03:06Z</time>
      </trkpt>
      <trkpt lat="43.26643" lon="5.60799">
        <ele>374.1</ele>
        <time>2021-06-02T11:03:18Z</time>
      </trkpt>
      <trkpt lat="43.26641" lon="5.60781">
        <ele>372.4</ele>
        <time>2021-06-02T11:03:30Z</time>
      </trkpt>
      <trkpt lat="43.2664" lon="5.60764">
        <ele>371.2</ele>
        <time>2021-06-02T11:03:42Z</time>
      </trkpt>
      <trkpt lat="43.26643" lon="5.60747">
        <ele>370.8</ele>
        <time>2021-06-02T11:03:54Z</time>
      </trkpt>
      <trkpt lat="43.26647" lon="5.60731">
        <ele>370.3</ele>
        <time>2021-06-02T11:04:06Z</time>
      </trkpt>
      <trkpt lat="43.26648" lon="5.60714">
        <ele>368.7</ele>
        <time>2021-06-02T11:04:18Z</time>
      </trkpt>
      <trkpt lat="43.26652" lon="5.60699">
        <ele>368.1</ele>
        <time>2021-06-02T11:04:28Z</time>
      </trkpt>
      <trkpt lat="43.26653" lon="5.60685">
        <ele>366.7</ele>
        <time>2021-06-02T11:04:40Z</time>
      </trkpt>
      <trkpt lat="43.26648" lon="5.60677">
        <ele>364.7</ele>
        <time>2021-06-02T11:05:56Z</time>
      </trkpt>
      <trkpt lat="43.26653" lon="5.60664">
        <ele>364.3</ele>
        <time>2021-06-02T11:06:06Z</time>
      </trkpt>
      <trkpt lat="43.26654" lon="5.6065">
        <ele>362.8</ele>
        <time>2021-06-02T11:06:16Z</time>
      </trkpt>
      <trkpt lat="43.26664" lon="5.60641">
        <ele>363.6</ele>
        <time>2021-06-02T11:06:28Z</time>
      </trkpt>
      <trkpt lat="43.26676" lon="5.60639">
        <ele>366.4</ele>
        <time>2021-06-02T11:06:40Z</time>
      </trkpt>
      <trkpt lat="43.2669" lon="5.60642">
        <ele>369.9</ele>
        <time>2021-06-02T11:06:52Z</time>
      </trkpt>
      <trkpt lat="43.26698" lon="5.60636">
        <ele>370.9</ele>
        <time>2021-06-02T11:07:00Z</time>
      </trkpt>
      <trkpt lat="43.26705" lon="5.60625">
        <ele>370.5</ele>
        <time>2021-06-02T11:07:10Z</time>
      </trkpt>
      <trkpt lat="43.26712" lon="5.60613">
        <ele>369.9</ele>
        <time>2021-06-02T11:07:22Z</time>
      </trkpt>
      <trkpt lat="43.26721" lon="5.60601">
        <ele>369.3</ele>
        <time>2021-06-02T11:07:34Z</time>
      </trkpt>
      <trkpt lat="43.2673" lon="5.6059">
        <ele>368.8</ele>
        <time>2021-06-02T11:07:46Z</time>
      </trkpt>
      <trkpt lat="43.26736" lon="5.60581">
        <ele>368.4</ele>
        <time>2021-06-02T11:07:54Z</time>
      </trkpt>
      <trkpt lat="43.26746" lon="5.60571">
        <ele>369.1</ele>
        <time>2021-06-02T11:08:06Z</time>
      </trkpt>
      <trkpt lat="43.26754" lon="5.6056">
        <ele>369.3</ele>
        <time>2021-06-02T11:08:16Z</time>
      </trkpt>
      <trkpt lat="43.26761" lon="5.60552">
        <ele>369.4</ele>
        <time>2021-06-02T11:08:24Z</time>
      </trkpt>
      <trkpt lat="43.26771" lon="5.60542">
        <ele>369.4</ele>
        <time>2021-06-02T11:08:34Z</time>
      </trkpt>
      <trkpt lat="43.26777" lon="5.60528">
        <ele>368.3</ele>
        <time>2021-06-02T11:08:44Z</time>
      </trkpt>
      <trkpt lat="43.26783" lon="5.60514">
        <ele>367</ele>
        <time>2021-06-02T11:08:54Z</time>
      </trkpt>
      <trkpt lat="43.26789" lon="5.60502">
        <ele>365.7</ele>
        <time>2021-06-02T11:09:02Z</time>
      </trkpt>
      <trkpt lat="43.26794" lon="5.60489">
        <ele>365.5</ele>
        <time>2021-06-02T11:09:12Z</time>
      </trkpt>
      <trkpt lat="43.26799" lon="5.60472">
        <ele>365.2</ele>
        <time>2021-06-02T11:09:24Z</time>
      </trkpt>
      <trkpt lat="43.26804" lon="5.6046">
        <ele>364.9</ele>
        <time>2021-06-02T11:09:38Z</time>
      </trkpt>
      <trkpt lat="43.26812" lon="5.60465">
        <ele>365.1</ele>
        <time>2021-06-02T11:09:56Z</time>
      </trkpt>
      <trkpt lat="43.26822" lon="5.60473">
        <ele>365.6</ele>
        <time>2021-06-02T11:10:08Z</time>
      </trkpt>
      <trkpt lat="43.26832" lon="5.60481">
        <ele>366.4</ele>
        <time>2021-06-02T11:10:20Z</time>
      </trkpt>
      <trkpt lat="43.26842" lon="5.60494">
        <ele>367</ele>
        <time>2021-06-02T11:10:32Z</time>
      </trkpt>
      <trkpt lat="43.2685" lon="5.60507">
        <ele>368.6</ele>
        <time>2021-06-02T11:10:44Z</time>
      </trkpt>
      <trkpt lat="43.26856" lon="5.60521">
        <ele>371.5</ele>
        <time>2021-06-02T11:10:56Z</time>
      </trkpt>
      <trkpt lat="43.26867" lon="5.60526">
        <ele>372.3</ele>
        <time>2021-06-02T11:11:10Z</time>
      </trkpt>
      <trkpt lat="43.26879" lon="5.60519">
        <ele>370.3</ele>
        <time>2021-06-02T11:11:22Z</time>
      </trkpt>
      <trkpt lat="43.26891" lon="5.60519">
        <ele>369.9</ele>
        <time>2021-06-02T11:11:34Z</time>
      </trkpt>
      <trkpt lat="43.269" lon="5.60524">
        <ele>370.7</ele>
        <time>2021-06-02T11:11:46Z</time>
      </trkpt>
      <trkpt lat="43.26908" lon="5.60521">
        <ele>369.8</ele>
        <time>2021-06-02T11:12:20Z</time>
      </trkpt>
      <trkpt lat="43.26917" lon="5.60529">
        <ele>371.8</ele>
        <time>2021-06-02T11:12:36Z</time>
      </trkpt>
      <trkpt lat="43.26926" lon="5.60535">
        <ele>372.8</ele>
        <time>2021-06-02T11:12:48Z</time>
      </trkpt>
      <trkpt lat="43.26937" lon="5.60543">
        <ele>374.1</ele>
        <time>2021-06-02T11:13:00Z</time>
      </trkpt>
      <trkpt lat="43.26947" lon="5.6055">
        <ele>375.2</ele>
        <time>2021-06-02T11:13:12Z</time>
      </trkpt>
      <trkpt lat="43.26958" lon="5.60557">
        <ele>376</ele>
        <time>2021-06-02T11:13:22Z</time>
      </trkpt>
      <trkpt lat="43.26968" lon="5.60562">
        <ele>376.4</ele>
        <time>2021-06-02T11:13:30Z</time>
      </trkpt>
      <trkpt lat="43.26978" lon="5.60566">
        <ele>376.4</ele>
        <time>2021-06-02T11:13:40Z</time>
      </trkpt>
      <trkpt lat="43.26988" lon="5.6057">
        <ele>376.4</ele>
        <time>2021-06-02T11:13:50Z</time>
      </trkpt>
      <trkpt lat="43.26999" lon="5.60574">
        <ele>376.3</ele>
        <time>2021-06-02T11:14:02Z</time>
      </trkpt>
      <trkpt lat="43.2701" lon="5.6058">
        <ele>377.4</ele>
        <time>2021-06-02T11:14:12Z</time>
      </trkpt>
      <trkpt lat="43.2702" lon="5.60585">
        <ele>378.8</ele>
        <time>2021-06-02T11:14:22Z</time>
      </trkpt>
      <trkpt lat="43.27029" lon="5.6059">
        <ele>380.1</ele>
        <time>2021-06-02T11:14:30Z</time>
      </trkpt>
      <trkpt lat="43.27039" lon="5.60595">
        <ele>381.4</ele>
        <time>2021-06-02T11:14:40Z</time>
      </trkpt>
      <trkpt lat="43.27048" lon="5.606">
        <ele>382.5</ele>
        <time>2021-06-02T11:14:50Z</time>
      </trkpt>
      <trkpt lat="43.27058" lon="5.60606">
        <ele>383.6</ele>
        <time>2021-06-02T11:15:00Z</time>
      </trkpt>
      <trkpt lat="43.2707" lon="5.60612">
        <ele>384.6</ele>
        <time>2021-06-02T11:15:12Z</time>
      </trkpt>
      <trkpt lat="43.2708" lon="5.60619">
        <ele>385.5</ele>
        <time>2021-06-02T11:15:24Z</time>
      </trkpt>
      <trkpt lat="43.2709" lon="5.60626">
        <ele>387.2</ele>
        <time>2021-06-02T11:15:34Z</time>
      </trkpt>
      <trkpt lat="43.271" lon="5.60633">
        <ele>389.1</ele>
        <time>2021-06-02T11:15:46Z</time>
      </trkpt>
      <trkpt lat="43.27109" lon="5.60638">
        <ele>390.3</ele>
        <time>2021-06-02T11:15:54Z</time>
      </trkpt>
      <trkpt lat="43.27119" lon="5.60643">
        <ele>391.1</ele>
        <time>2021-06-02T11:16:06Z</time>
      </trkpt>
      <trkpt lat="43.27128" lon="5.6064">
        <ele>391.3</ele>
        <time>2021-06-02T11:17:48Z</time>
      </trkpt>
      <trkpt lat="43.27136" lon="5.60631">
        <ele>391.6</ele>
        <time>2021-06-02T11:19:28Z</time>
      </trkpt>
      <trkpt lat="43.27144" lon="5.60624">
        <ele>392.4</ele>
        <time>2021-06-02T11:19:44Z</time>
      </trkpt>
      <trkpt lat="43.27154" lon="5.6062">
        <ele>393.5</ele>
        <time>2021-06-02T11:20:12Z</time>
      </trkpt>
      <trkpt lat="43.27164" lon="5.60617">
        <ele>394.8</ele>
        <time>2021-06-02T11:20:28Z</time>
      </trkpt>
      <trkpt lat="43.27173" lon="5.60612">
        <ele>396.6</ele>
        <time>2021-06-02T11:20:48Z</time>
      </trkpt>
      <trkpt lat="43.27181" lon="5.60604">
        <ele>398.7</ele>
        <time>2021-06-02T11:21:14Z</time>
      </trkpt>
      <trkpt lat="43.27192" lon="5.60603">
        <ele>400.5</ele>
        <time>2021-06-02T11:21:36Z</time>
      </trkpt>
      <trkpt lat="43.27201" lon="5.60597">
        <ele>402.7</ele>
        <time>2021-06-02T11:21:54Z</time>
      </trkpt>
      <trkpt lat="43.27208" lon="5.6059">
        <ele>404.8</ele>
        <time>2021-06-02T11:22:10Z</time>
      </trkpt>
      <trkpt lat="43.27217" lon="5.60588">
        <ele>406.5</ele>
        <time>2021-06-02T11:22:34Z</time>
      </trkpt>
      <trkpt lat="43.27226" lon="5.60591">
        <ele>407.7</ele>
        <time>2021-06-02T11:22:52Z</time>
      </trkpt>
      <trkpt lat="43.27236" lon="5.60598">
        <ele>408.6</ele>
        <time>2021-06-02T11:23:08Z</time>
      </trkpt>
      <trkpt lat="43.27247" lon="5.60598">
        <ele>410.4</ele>
        <time>2021-06-02T11:23:24Z</time>
      </trkpt>
      <trkpt lat="43.27257" lon="5.60603">
        <ele>409.9</ele>
        <time>2021-06-02T11:23:40Z</time>
      </trkpt>
      <trkpt lat="43.27267" lon="5.60602">
        <ele>409.6</ele>
        <time>2021-06-02T11:23:56Z</time>
      </trkpt>
      <trkpt lat="43.27278" lon="5.60603">
        <ele>409</ele>
        <time>2021-06-02T11:24:12Z</time>
      </trkpt>
      <trkpt lat="43.27288" lon="5.60602">
        <ele>408.7</ele>
        <time>2021-06-02T11:24:28Z</time>
      </trkpt>
      <trkpt lat="43.27297" lon="5.60597">
        <ele>409.1</ele>
        <time>2021-06-02T11:24:40Z</time>
      </trkpt>
      <trkpt lat="43.27307" lon="5.60592">
        <ele>409.5</ele>
        <time>2021-06-02T11:25:00Z</time>
      </trkpt>
      <trkpt lat="43.27315" lon="5.60586">
        <ele>410.3</ele>
        <time>2021-06-02T11:25:14Z</time>
      </trkpt>
      <trkpt lat="43.27325" lon="5.60587">
        <ele>409.7</ele>
        <time>2021-06-02T11:25:36Z</time>
      </trkpt>
      <trkpt lat="43.27334" lon="5.60586">
        <ele>409.4</ele>
        <time>2021-06-02T11:25:56Z</time>
      </trkpt>
      <trkpt lat="43.27345" lon="5.60586">
        <ele>406.9</ele>
        <time>2021-06-02T11:26:18Z</time>
      </trkpt>
      <trkpt lat="43.27355" lon="5.60582">
        <ele>405.2</ele>
        <time>2021-06-02T11:26:52Z</time>
      </trkpt>
      <trkpt lat="43.27365" lon="5.60585">
        <ele>402.4</ele>
        <time>2021-06-02T11:27:12Z</time>
      </trkpt>
      <trkpt lat="43.27375" lon="5.60581">
        <ele>400.9</ele>
        <time>2021-06-02T11:27:32Z</time>
      </trkpt>
      <trkpt lat="43.27384" lon="5.60582">
        <ele>398.6</ele>
        <time>2021-06-02T11:27:52Z</time>
      </trkpt>
      <trkpt lat="43.27394" lon="5.60579">
        <ele>397.3</ele>
        <time>2021-06-02T11:28:12Z</time>
      </trkpt>
      <trkpt lat="43.27403" lon="5.60578">
        <ele>395.3</ele>
        <time>2021-06-02T11:28:30Z</time>
      </trkpt>
      <trkpt lat="43.27411" lon="5.60573">
        <ele>394.5</ele>
        <time>2021-06-02T11:28:56Z</time>
      </trkpt>
      <trkpt lat="43.27421" lon="5.60568">
        <ele>392.6</ele>
        <time>2021-06-02T11:29:14Z</time>
      </trkpt>
      <trkpt lat="43.27429" lon="5.60566">
        <ele>389.3</ele>
        <time>2021-06-02T11:29:34Z</time>
      </trkpt>
      <trkpt lat="43.27439" lon="5.60563">
        <ele>385.8</ele>
        <time>2021-06-02T11:30:00Z</time>
      </trkpt>
      <trkpt lat="43.27447" lon="5.60557">
        <ele>383.4</ele>
        <time>2021-06-02T11:30:42Z</time>
      </trkpt>
      <trkpt lat="43.27449" lon="5.60545">
        <ele>385.6</ele>
        <time>2021-06-02T11:31:04Z</time>
      </trkpt>
      <trkpt lat="43.27453" lon="5.60531">
        <ele>387.1</ele>
        <time>2021-06-02T11:31:24Z</time>
      </trkpt>
      <trkpt lat="43.27459" lon="5.60521">
        <ele>387</ele>
        <time>2021-06-02T11:31:44Z</time>
      </trkpt>
      <trkpt lat="43.27461" lon="5.60507">
        <ele>389.6</ele>
        <time>2021-06-02T11:32:12Z</time>
      </trkpt>
      <trkpt lat="43.27463" lon="5.60494">
        <ele>391.3</ele>
        <time>2021-06-02T11:32:30Z</time>
      </trkpt>
      <trkpt lat="43.27469" lon="5.60483">
        <ele>391.1</ele>
        <time>2021-06-02T11:32:58Z</time>
      </trkpt>
      <trkpt lat="43.27476" lon="5.60475">
        <ele>389.6</ele>
        <time>2021-06-02T11:33:16Z</time>
      </trkpt>
      <trkpt lat="43.27482" lon="5.60465">
        <ele>388.8</ele>
        <time>2021-06-02T11:33:46Z</time>
      </trkpt>
      <trkpt lat="43.27488" lon="5.60453">
        <ele>388.6</ele>
        <time>2021-06-02T11:34:54Z</time>
      </trkpt>
      <trkpt lat="43.27489" lon="5.60442">
        <ele>390.2</ele>
        <time>2021-06-02T11:35:38Z</time>
      </trkpt>
      <trkpt lat="43.27492" lon="5.60429">
        <ele>391.3</ele>
        <time>2021-06-02T11:35:54Z</time>
      </trkpt>
      <trkpt lat="43.27496" lon="5.60414">
        <ele>392</ele>
        <time>2021-06-02T11:36:10Z</time>
      </trkpt>
      <trkpt lat="43.27503" lon="5.60403">
        <ele>389.3</ele>
        <time>2021-06-02T11:36:28Z</time>
      </trkpt>
      <trkpt lat="43.27508" lon="5.60391">
        <ele>387.4</ele>
        <time>2021-06-02T11:36:42Z</time>
      </trkpt>
      <trkpt lat="43.27513" lon="5.60378">
        <ele>385.7</ele>
        <time>2021-06-02T11:36:56Z</time>
      </trkpt>
      <trkpt lat="43.27516" lon="5.60366">
        <ele>384.7</ele>
        <time>2021-06-02T11:37:08Z</time>
      </trkpt>
      <trkpt lat="43.27518" lon="5.60354">
        <ele>384.8</ele>
        <time>2021-06-02T11:38:00Z</time>
      </trkpt>
      <trkpt lat="43.27528" lon="5.60349">
        <ele>379</ele>
        <time>2021-06-02T11:38:16Z</time>
      </trkpt>
      <trkpt lat="43.27537" lon="5.60342">
        <ele>374.3</ele>
        <time>2021-06-02T11:38:28Z</time>
      </trkpt>
      <trkpt lat="43.27542" lon="5.60329">
        <ele>372.6</ele>
        <time>2021-06-02T11:38:50Z</time>
      </trkpt>
      <trkpt lat="43.27544" lon="5.60314">
        <ele>371.9</ele>
        <time>2021-06-02T11:39:06Z</time>
      </trkpt>
      <trkpt lat="43.27545" lon="5.603">
        <ele>371.7</ele>
        <time>2021-06-02T11:39:24Z</time>
      </trkpt>
      <trkpt lat="43.27547" lon="5.60286">
        <ele>370.6</ele>
        <time>2021-06-02T11:39:42Z</time>
      </trkpt>
      <trkpt lat="43.27554" lon="5.60273">
        <ele>367.6</ele>
        <time>2021-06-02T11:39:58Z</time>
      </trkpt>
      <trkpt lat="43.27554" lon="5.6026">
        <ele>368.1</ele>
        <time>2021-06-02T11:40:16Z</time>
      </trkpt>
      <trkpt lat="43.27555" lon="5.60246">
        <ele>368</ele>
        <time>2021-06-02T11:40:32Z</time>
      </trkpt>
      <trkpt lat="43.27562" lon="5.60237">
        <ele>363.6</ele>
        <time>2021-06-02T11:40:58Z</time>
      </trkpt>
      <trkpt lat="43.2757" lon="5.60226">
        <ele>359.7</ele>
        <time>2021-06-02T11:41:18Z</time>
      </trkpt>
      <trkpt lat="43.27575" lon="5.60214">
        <ele>356.9</ele>
        <time>2021-06-02T11:41:34Z</time>
      </trkpt>
      <trkpt lat="43.27581" lon="5.60203">
        <ele>353.9</ele>
        <time>2021-06-02T11:41:52Z</time>
      </trkpt>
      <trkpt lat="43.27589" lon="5.60191">
        <ele>350.8</ele>
        <time>2021-06-02T11:42:12Z</time>
      </trkpt>
      <trkpt lat="43.27596" lon="5.60181">
        <ele>348.4</ele>
        <time>2021-06-02T11:42:26Z</time>
      </trkpt>
      <trkpt lat="43.276" lon="5.60167">
        <ele>347.5</ele>
        <time>2021-06-02T11:42:44Z</time>
      </trkpt>
      <trkpt lat="43.27604" lon="5.60153">
        <ele>344.5</ele>
        <time>2021-06-02T11:42:58Z</time>
      </trkpt>
      <trkpt lat="43.27613" lon="5.6015">
        <ele>341.7</ele>
        <time>2021-06-02T11:43:16Z</time>
      </trkpt>
      <trkpt lat="43.27622" lon="5.60142">
        <ele>338.6</ele>
        <time>2021-06-02T11:43:32Z</time>
      </trkpt>
      <trkpt lat="43.27633" lon="5.60138">
        <ele>335.6</ele>
        <time>2021-06-02T11:43:52Z</time>
      </trkpt>
      <trkpt lat="43.27641" lon="5.6013">
        <ele>333.7</ele>
        <time>2021-06-02T11:44:02Z</time>
      </trkpt>
      <trkpt lat="43.27646" lon="5.60117">
        <ele>332.6</ele>
        <time>2021-06-02T11:44:16Z</time>
      </trkpt>
      <trkpt lat="43.27649" lon="5.60104">
        <ele>332.2</ele>
        <time>2021-06-02T11:45:10Z</time>
      </trkpt>
      <trkpt lat="43.27658" lon="5.60099">
        <ele>331.2</ele>
        <time>2021-06-02T11:45:46Z</time>
      </trkpt>
      <trkpt lat="43.27662" lon="5.60086">
        <ele>331.3</ele>
        <time>2021-06-02T11:46:00Z</time>
      </trkpt>
      <trkpt lat="43.27666" lon="5.60071">
        <ele>329.7</ele>
        <time>2021-06-02T11:46:16Z</time>
      </trkpt>
      <trkpt lat="43.27668" lon="5.60057">
        <ele>327.9</ele>
        <time>2021-06-02T11:46:30Z</time>
      </trkpt>
      <trkpt lat="43.27668" lon="5.60043">
        <ele>326.4</ele>
        <time>2021-06-02T11:46:42Z</time>
      </trkpt>
      <trkpt lat="43.27671" lon="5.60028">
        <ele>324.5</ele>
        <time>2021-06-02T11:46:58Z</time>
      </trkpt>
      <trkpt lat="43.27676" lon="5.60015">
        <ele>322.8</ele>
        <time>2021-06-02T11:47:12Z</time>
      </trkpt>
      <trkpt lat="43.27681" lon="5.60004">
        <ele>321.5</ele>
        <time>2021-06-02T11:47:24Z</time>
      </trkpt>
      <trkpt lat="43.27689" lon="5.59996">
        <ele>319.7</ele>
        <time>2021-06-02T11:47:36Z</time>
      </trkpt>
      <trkpt lat="43.27699" lon="5.59992">
        <ele>318.2</ele>
        <time>2021-06-02T11:47:48Z</time>
      </trkpt>
      <trkpt lat="43.2771" lon="5.59992">
        <ele>317.6</ele>
        <time>2021-06-02T11:48:00Z</time>
      </trkpt>
      <trkpt lat="43.27721" lon="5.59993">
        <ele>317.4</ele>
        <time>2021-06-02T11:48:12Z</time>
      </trkpt>
      <trkpt lat="43.27733" lon="5.59994">
        <ele>317</ele>
        <time>2021-06-02T11:48:26Z</time>
      </trkpt>
      <trkpt lat="43.27742" lon="5.59989">
        <ele>315.6</ele>
        <time>2021-06-02T11:48:38Z</time>
      </trkpt>
      <trkpt lat="43.27742" lon="5.59975">
        <ele>313.1</ele>
        <time>2021-06-02T11:48:50Z</time>
      </trkpt>
      <trkpt lat="43.27748" lon="5.59965">
        <ele>311.1</ele>
        <time>2021-06-02T11:49:04Z</time>
      </trkpt>
      <trkpt lat="43.27753" lon="5.59952">
        <ele>308.1</ele>
        <time>2021-06-02T11:49:20Z</time>
      </trkpt>
      <trkpt lat="43.27758" lon="5.5994">
        <ele>304.7</ele>
        <time>2021-06-02T11:49:34Z</time>
      </trkpt>
      <trkpt lat="43.27764" lon="5.59928">
        <ele>301.3</ele>
        <time>2021-06-02T11:49:50Z</time>
      </trkpt>
      <trkpt lat="43.27769" lon="5.59916">
        <ele>298.5</ele>
        <time>2021-06-02T11:50:02Z</time>
      </trkpt>
      <trkpt lat="43.27771" lon="5.59904">
        <ele>295.2</ele>
        <time>2021-06-02T11:50:14Z</time>
      </trkpt>
      <trkpt lat="43.27772" lon="5.59891">
        <ele>291.7</ele>
        <time>2021-06-02T11:50:28Z</time>
      </trkpt>
      <trkpt lat="43.27771" lon="5.59878">
        <ele>288.6</ele>
        <time>2021-06-02T11:50:48Z</time>
      </trkpt>
      <trkpt lat="43.27771" lon="5.59864">
        <ele>285.4</ele>
        <time>2021-06-02T11:51:06Z</time>
      </trkpt>
      <trkpt lat="43.27776" lon="5.59851">
        <ele>281.6</ele>
        <time>2021-06-02T11:51:22Z</time>
      </trkpt>
      <trkpt lat="43.27783" lon="5.59842">
        <ele>278.8</ele>
        <time>2021-06-02T11:51:36Z</time>
      </trkpt>
      <trkpt lat="43.27794" lon="5.59839">
        <ele>277.5</ele>
        <time>2021-06-02T11:51:52Z</time>
      </trkpt>
      <trkpt lat="43.27804" lon="5.59833">
        <ele>275.8</ele>
        <time>2021-06-02T11:52:06Z</time>
      </trkpt>
      <trkpt lat="43.27814" lon="5.59831">
        <ele>274.7</ele>
        <time>2021-06-02T11:52:20Z</time>
      </trkpt>
      <trkpt lat="43.27824" lon="5.59834">
        <ele>274.7</ele>
        <time>2021-06-02T11:52:34Z</time>
      </trkpt>
      <trkpt lat="43.27834" lon="5.59835">
        <ele>274</ele>
        <time>2021-06-02T11:52:48Z</time>
      </trkpt>
      <trkpt lat="43.27844" lon="5.59834">
        <ele>271.3</ele>
        <time>2021-06-02T11:53:06Z</time>
      </trkpt>
      <trkpt lat="43.27853" lon="5.59832">
        <ele>268.7</ele>
        <time>2021-06-02T11:53:18Z</time>
      </trkpt>
      <trkpt lat="43.27862" lon="5.59831">
        <ele>266</ele>
        <time>2021-06-02T11:53:30Z</time>
      </trkpt>
      <trkpt lat="43.27872" lon="5.59828">
        <ele>263.4</ele>
        <time>2021-06-02T11:53:42Z</time>
      </trkpt>
      <trkpt lat="43.27882" lon="5.59828">
        <ele>260.8</ele>
        <time>2021-06-02T11:53:56Z</time>
      </trkpt>
      <trkpt lat="43.27881" lon="5.59818">
        <ele>260.2</ele>
        <time>2021-06-02T11:55:00Z</time>
      </trkpt>
      <trkpt lat="43.2788" lon="5.59812">
        <ele>260.2</ele>
        <time>2021-06-02T13:19:36Z</time>
      </trkpt>
      <trkpt lat="43.27875" lon="5.59823">
        <ele>262.2</ele>
        <time>2021-06-02T13:20:24Z</time>
      </trkpt>
      <trkpt lat="43.2787" lon="5.59834">
        <ele>264.4</ele>
        <time>2021-06-02T13:20:44Z</time>
      </trkpt>
      <trkpt lat="43.27877" lon="5.59839">
        <ele>262.9</ele>
        <time>2021-06-02T13:21:04Z</time>
      </trkpt>
      <trkpt lat="43.27875" lon="5.59853">
        <ele>264.1</ele>
        <time>2021-06-02T13:21:26Z</time>
      </trkpt>
      <trkpt lat="43.27871" lon="5.59865">
        <ele>266</ele>
        <time>2021-06-02T13:21:38Z</time>
      </trkpt>
      <trkpt lat="43.2787" lon="5.59879">
        <ele>267.3</ele>
        <time>2021-06-02T13:21:50Z</time>
      </trkpt>
      <trkpt lat="43.2787" lon="5.59893">
        <ele>268.3</ele>
        <time>2021-06-02T13:22:02Z</time>
      </trkpt>
      <trkpt lat="43.27867" lon="5.59906">
        <ele>270.3</ele>
        <time>2021-06-02T13:22:14Z</time>
      </trkpt>
      <trkpt lat="43.27867" lon="5.59919">
        <ele>271.1</ele>
        <time>2021-06-02T13:22:26Z</time>
      </trkpt>
      <trkpt lat="43.27866" lon="5.59933">
        <ele>271.4</ele>
        <time>2021-06-02T13:22:38Z</time>
      </trkpt>
      <trkpt lat="43.27865" lon="5.59947">
        <ele>271.6</ele>
        <time>2021-06-02T13:22:50Z</time>
      </trkpt>
      <trkpt lat="43.27863" lon="5.59961">
        <ele>272.6</ele>
        <time>2021-06-02T13:23:02Z</time>
      </trkpt>
      <trkpt lat="43.27861" lon="5.59974">
        <ele>273.2</ele>
        <time>2021-06-02T13:23:14Z</time>
      </trkpt>
      <trkpt lat="43.27859" lon="5.59989">
        <ele>273.9</ele>
        <time>2021-06-02T13:23:28Z</time>
      </trkpt>
      <trkpt lat="43.27857" lon="5.60004">
        <ele>274.5</ele>
        <time>2021-06-02T13:23:40Z</time>
      </trkpt>
      <trkpt lat="43.27854" lon="5.60021">
        <ele>274.5</ele>
        <time>2021-06-02T13:23:54Z</time>
      </trkpt>
      <trkpt lat="43.27854" lon="5.60035">
        <ele>273.7</ele>
        <time>2021-06-02T13:24:04Z</time>
      </trkpt>
      <trkpt lat="43.27852" lon="5.6005">
        <ele>273.6</ele>
        <time>2021-06-02T13:24:16Z</time>
      </trkpt>
      <trkpt lat="43.27848" lon="5.60063">
        <ele>274.4</ele>
        <time>2021-06-02T13:24:28Z</time>
      </trkpt>
      <trkpt lat="43.27843" lon="5.60077">
        <ele>275.8</ele>
        <time>2021-06-02T13:24:40Z</time>
      </trkpt>
      <trkpt lat="43.27839" lon="5.60092">
        <ele>275.7</ele>
        <time>2021-06-02T13:24:52Z</time>
      </trkpt>
      <trkpt lat="43.27836" lon="5.60106">
        <ele>274.3</ele>
        <time>2021-06-02T13:25:04Z</time>
      </trkpt>
      <trkpt lat="43.27832" lon="5.60119">
        <ele>273.1</ele>
        <time>2021-06-02T13:25:28Z</time>
      </trkpt>
      <trkpt lat="43.27823" lon="5.60129">
        <ele>273.7</ele>
        <time>2021-06-02T13:25:42Z</time>
      </trkpt>
      <trkpt lat="43.27815" lon="5.60139">
        <ele>273.8</ele>
        <time>2021-06-02T13:25:54Z</time>
      </trkpt>
      <trkpt lat="43.27807" lon="5.60148">
        <ele>274.1</ele>
        <time>2021-06-02T13:26:06Z</time>
      </trkpt>
      <trkpt lat="43.27805" lon="5.60164">
        <ele>270.8</ele>
        <time>2021-06-02T13:26:20Z</time>
      </trkpt>
      <trkpt lat="43.27803" lon="5.60177">
        <ele>268.1</ele>
        <time>2021-06-02T13:26:32Z</time>
      </trkpt>
      <trkpt lat="43.27801" lon="5.60191">
        <ele>265.2</ele>
        <time>2021-06-02T13:26:44Z</time>
      </trkpt>
      <trkpt lat="43.27797" lon="5.60205">
        <ele>262.9</ele>
        <time>2021-06-02T13:27:02Z</time>
      </trkpt>
      <trkpt lat="43.27794" lon="5.60219">
        <ele>260.2</ele>
        <time>2021-06-02T13:27:16Z</time>
      </trkpt>
      <trkpt lat="43.27796" lon="5.60231">
        <ele>256.6</ele>
        <time>2021-06-02T13:27:28Z</time>
      </trkpt>
      <trkpt lat="43.27797" lon="5.60244">
        <ele>253.2</ele>
        <time>2021-06-02T13:27:38Z</time>
      </trkpt>
      <trkpt lat="43.27792" lon="5.60256">
        <ele>251.7</ele>
        <time>2021-06-02T13:27:56Z</time>
      </trkpt>
      <trkpt lat="43.27789" lon="5.60269">
        <ele>249.7</ele>
        <time>2021-06-02T13:28:12Z</time>
      </trkpt>
      <trkpt lat="43.27786" lon="5.60283">
        <ele>247.7</ele>
        <time>2021-06-02T13:28:24Z</time>
      </trkpt>
      <trkpt lat="43.27784" lon="5.60297">
        <ele>245.1</ele>
        <time>2021-06-02T13:28:36Z</time>
      </trkpt>
      <trkpt lat="43.27784" lon="5.60313">
        <ele>242.2</ele>
        <time>2021-06-02T13:28:48Z</time>
      </trkpt>
      <trkpt lat="43.27782" lon="5.60327">
        <ele>239.7</ele>
        <time>2021-06-02T13:29:04Z</time>
      </trkpt>
      <trkpt lat="43.27781" lon="5.60339">
        <ele>237.8</ele>
        <time>2021-06-02T13:29:18Z</time>
      </trkpt>
      <trkpt lat="43.27792" lon="5.60336">
        <ele>235</ele>
        <time>2021-06-02T13:29:32Z</time>
      </trkpt>
      <trkpt lat="43.27801" lon="5.60326">
        <ele>234.1</ele>
        <time>2021-06-02T13:29:44Z</time>
      </trkpt>
      <trkpt lat="43.27809" lon="5.60315">
        <ele>234.4</ele>
        <time>2021-06-02T13:29:56Z</time>
      </trkpt>
      <trkpt lat="43.27817" lon="5.60303">
        <ele>234.8</ele>
        <time>2021-06-02T13:30:08Z</time>
      </trkpt>
      <trkpt lat="43.27824" lon="5.60295">
        <ele>235</ele>
        <time>2021-06-02T13:30:18Z</time>
      </trkpt>
      <trkpt lat="43.2783" lon="5.60282">
        <ele>236.2</ele>
        <time>2021-06-02T13:30:30Z</time>
      </trkpt>
      <trkpt lat="43.27837" lon="5.60271">
        <ele>236.6</ele>
        <time>2021-06-02T13:30:42Z</time>
      </trkpt>
      <trkpt lat="43.27844" lon="5.60262">
        <ele>235.8</ele>
        <time>2021-06-02T13:30:56Z</time>
      </trkpt>
      <trkpt lat="43.27853" lon="5.60254">
        <ele>234.1</ele>
        <time>2021-06-02T13:31:10Z</time>
      </trkpt>
      <trkpt lat="43.27862" lon="5.60249">
        <ele>231.9</ele>
        <time>2021-06-02T13:31:22Z</time>
      </trkpt>
      <trkpt lat="43.27874" lon="5.60243">
        <ele>228.6</ele>
        <time>2021-06-02T13:31:34Z</time>
      </trkpt>
      <trkpt lat="43.27885" lon="5.60238">
        <ele>225.5</ele>
        <time>2021-06-02T13:31:46Z</time>
      </trkpt>
      <trkpt lat="43.27895" lon="5.60232">
        <ele>223.1</ele>
        <time>2021-06-02T13:31:58Z</time>
      </trkpt>
      <trkpt lat="43.27906" lon="5.60226">
        <ele>220.5</ele>
        <time>2021-06-02T13:32:10Z</time>
      </trkpt>
      <trkpt lat="43.27917" lon="5.6022">
        <ele>217.8</ele>
        <time>2021-06-02T13:32:22Z</time>
      </trkpt>
      <trkpt lat="43.27926" lon="5.60213">
        <ele>217</ele>
        <time>2021-06-02T13:32:34Z</time>
      </trkpt>
      <trkpt lat="43.27933" lon="5.60203">
        <ele>216.8</ele>
        <time>2021-06-02T13:32:46Z</time>
      </trkpt>
      <trkpt lat="43.27942" lon="5.60194">
        <ele>215.5</ele>
        <time>2021-06-02T13:32:58Z</time>
      </trkpt>
      <trkpt lat="43.27952" lon="5.60184">
        <ele>214</ele>
        <time>2021-06-02T13:33:10Z</time>
      </trkpt>
      <trkpt lat="43.27959" lon="5.60173">
        <ele>213.2</ele>
        <time>2021-06-02T13:33:22Z</time>
      </trkpt>
      <trkpt lat="43.27964" lon="5.60161">
        <ele>212.7</ele>
        <time>2021-06-02T13:33:32Z</time>
      </trkpt>
      <trkpt lat="43.27971" lon="5.60147">
        <ele>210.9</ele>
        <time>2021-06-02T13:33:44Z</time>
      </trkpt>
      <trkpt lat="43.27978" lon="5.60133">
        <ele>209.3</ele>
        <time>2021-06-02T13:33:56Z</time>
      </trkpt>
      <trkpt lat="43.27982" lon="5.60118">
        <ele>208.4</ele>
        <time>2021-06-02T13:34:08Z</time>
      </trkpt>
      <trkpt lat="43.27987" lon="5.60103">
        <ele>207.4</ele>
        <time>2021-06-02T13:34:20Z</time>
      </trkpt>
      <trkpt lat="43.27992" lon="5.60088">
        <ele>206.5</ele>
        <time>2021-06-02T13:34:32Z</time>
      </trkpt>
      <trkpt lat="43.27996" lon="5.60072">
        <ele>205.6</ele>
        <time>2021-06-02T13:34:44Z</time>
      </trkpt>
      <trkpt lat="43.28" lon="5.60056">
        <ele>204.3</ele>
        <time>2021-06-02T13:34:56Z</time>
      </trkpt>
      <trkpt lat="43.28003" lon="5.60041">
        <ele>203.8</ele>
        <time>2021-06-02T13:35:08Z</time>
      </trkpt>
      <trkpt lat="43.28007" lon="5.60027">
        <ele>202.4</ele>
        <time>2021-06-02T13:35:20Z</time>
      </trkpt>
      <trkpt lat="43.28012" lon="5.60012">
        <ele>200.7</ele>
        <time>2021-06-02T13:35:32Z</time>
      </trkpt>
      <trkpt lat="43.28015" lon="5.59999">
        <ele>200.1</ele>
        <time>2021-06-02T13:35:44Z</time>
      </trkpt>
      <trkpt lat="43.28018" lon="5.59983">
        <ele>199.5</ele>
        <time>2021-06-02T13:35:56Z</time>
      </trkpt>
      <trkpt lat="43.28022" lon="5.59968">
        <ele>198.8</ele>
        <time>2021-06-02T13:36:08Z</time>
      </trkpt>
      <trkpt lat="43.28026" lon="5.59953">
        <ele>197.7</ele>
        <time>2021-06-02T13:36:20Z</time>
      </trkpt>
      <trkpt lat="43.2803" lon="5.59938">
        <ele>197</ele>
        <time>2021-06-02T13:36:32Z</time>
      </trkpt>
      <trkpt lat="43.28034" lon="5.59924">
        <ele>195.8</ele>
        <time>2021-06-02T13:36:44Z</time>
      </trkpt>
      <trkpt lat="43.28034" lon="5.59909">
        <ele>196.7</ele>
        <time>2021-06-02T13:36:54Z</time>
      </trkpt>
      <trkpt lat="43.28037" lon="5.59894">
        <ele>196</ele>
        <time>2021-06-02T13:37:06Z</time>
      </trkpt>
      <trkpt lat="43.28041" lon="5.59879">
        <ele>194.4</ele>
        <time>2021-06-02T13:37:18Z</time>
      </trkpt>
      <trkpt lat="43.28046" lon="5.59866">
        <ele>192.7</ele>
        <time>2021-06-02T13:37:30Z</time>
      </trkpt>
      <trkpt lat="43.28053" lon="5.59852">
        <ele>190.1</ele>
        <time>2021-06-02T13:37:42Z</time>
      </trkpt>
      <trkpt lat="43.28058" lon="5.59837">
        <ele>188.3</ele>
        <time>2021-06-02T13:37:54Z</time>
      </trkpt>
      <trkpt lat="43.28061" lon="5.59823">
        <ele>187.1</ele>
        <time>2021-06-02T13:38:06Z</time>
      </trkpt>
      <trkpt lat="43.28066" lon="5.5981">
        <ele>185.2</ele>
        <time>2021-06-02T13:38:18Z</time>
      </trkpt>
      <trkpt lat="43.28071" lon="5.59795">
        <ele>183.4</ele>
        <time>2021-06-02T13:38:30Z</time>
      </trkpt>
      <trkpt lat="43.28076" lon="5.59781">
        <ele>181.2</ele>
        <time>2021-06-02T13:38:42Z</time>
      </trkpt>
      <trkpt lat="43.2808" lon="5.59768">
        <ele>179.3</ele>
        <time>2021-06-02T13:38:52Z</time>
      </trkpt>
      <trkpt lat="43.28083" lon="5.59753">
        <ele>178</ele>
        <time>2021-06-02T13:39:04Z</time>
      </trkpt>
      <trkpt lat="43.28087" lon="5.59736">
        <ele>176.2</ele>
        <time>2021-06-02T13:39:16Z</time>
      </trkpt>
      <trkpt lat="43.28089" lon="5.59722">
        <ele>174.9</ele>
        <time>2021-06-02T13:39:26Z</time>
      </trkpt>
      <trkpt lat="43.28091" lon="5.59707">
        <ele>173.8</ele>
        <time>2021-06-02T13:39:38Z</time>
      </trkpt>
      <trkpt lat="43.28094" lon="5.59691">
        <ele>171.9</ele>
        <time>2021-06-02T13:39:50Z</time>
      </trkpt>
      <trkpt lat="43.28097" lon="5.59678">
        <ele>170.3</ele>
        <time>2021-06-02T13:39:58Z</time>
      </trkpt>
      <trkpt lat="43.28098" lon="5.59662">
        <ele>169.6</ele>
        <time>2021-06-02T13:40:10Z</time>
      </trkpt>
      <trkpt lat="43.28101" lon="5.5965">
        <ele>168.4</ele>
        <time>2021-06-02T13:40:18Z</time>
      </trkpt>
      <trkpt lat="43.28103" lon="5.59635">
        <ele>167.6</ele>
        <time>2021-06-02T13:40:30Z</time>
      </trkpt>
      <trkpt lat="43.28106" lon="5.59618">
        <ele>166.5</ele>
        <time>2021-06-02T13:40:42Z</time>
      </trkpt>
      <trkpt lat="43.28104" lon="5.59603">
        <ele>167.3</ele>
        <time>2021-06-02T13:40:58Z</time>
      </trkpt>
      <trkpt lat="43.28109" lon="5.59594">
        <ele>165.3</ele>
        <time>2021-06-02T13:41:54Z</time>
      </trkpt>
      <trkpt lat="43.28111" lon="5.59581">
        <ele>164.6</ele>
        <time>2021-06-02T13:42:02Z</time>
      </trkpt>
      <trkpt lat="43.28114" lon="5.59567">
        <ele>163.5</ele>
        <time>2021-06-02T13:42:10Z</time>
      </trkpt>
      <trkpt lat="43.28117" lon="5.59554">
        <ele>162.6</ele>
        <time>2021-06-02T13:42:18Z</time>
      </trkpt>
      <trkpt lat="43.28122" lon="5.59542">
        <ele>160.7</ele>
        <time>2021-06-02T13:42:28Z</time>
      </trkpt>
      <trkpt lat="43.28123" lon="5.59526">
        <ele>160.2</ele>
        <time>2021-06-02T13:42:38Z</time>
      </trkpt>
      <trkpt lat="43.28125" lon="5.59524">
        <ele>159.5</ele>
        <time>2021-06-02T13:43:14Z</time>
      </trkpt>
      <trkpt lat="43.2813" lon="5.59539">
        <ele>158.1</ele>
        <time>2021-06-02T13:43:26Z</time>
      </trkpt>
      <trkpt lat="43.28133" lon="5.59553">
        <ele>157.1</ele>
        <time>2021-06-02T13:43:40Z</time>
      </trkpt>
      <trkpt lat="43.28132" lon="5.59567">
        <ele>157.4</ele>
        <time>2021-06-02T13:43:52Z</time>
      </trkpt>
      <trkpt lat="43.28134" lon="5.5958">
        <ele>157</ele>
        <time>2021-06-02T13:44:04Z</time>
      </trkpt>
      <trkpt lat="43.28137" lon="5.59593">
        <ele>156.1</ele>
        <time>2021-06-02T13:44:16Z</time>
      </trkpt>
      <trkpt lat="43.2814" lon="5.59605">
        <ele>154.8</ele>
        <time>2021-06-02T13:44:26Z</time>
      </trkpt>
      <trkpt lat="43.28142" lon="5.59619">
        <ele>154.2</ele>
        <time>2021-06-02T13:44:36Z</time>
      </trkpt>
      <trkpt lat="43.28141" lon="5.59634">
        <ele>154.2</ele>
        <time>2021-06-02T13:44:48Z</time>
      </trkpt>
      <trkpt lat="43.28145" lon="5.59648">
        <ele>152.9</ele>
        <time>2021-06-02T13:45:00Z</time>
      </trkpt>
      <trkpt lat="43.28147" lon="5.59664">
        <ele>151.9</ele>
        <time>2021-06-02T13:45:12Z</time>
      </trkpt>
      <trkpt lat="43.28152" lon="5.59678">
        <ele>150.5</ele>
        <time>2021-06-02T13:45:22Z</time>
      </trkpt>
      <trkpt lat="43.28156" lon="5.5969">
        <ele>149.2</ele>
        <time>2021-06-02T13:45:32Z</time>
      </trkpt>
      <trkpt lat="43.28158" lon="5.59703">
        <ele>148.6</ele>
        <time>2021-06-02T13:45:44Z</time>
      </trkpt>
      <trkpt lat="43.28161" lon="5.5972">
        <ele>147.8</ele>
        <time>2021-06-02T13:45:56Z</time>
      </trkpt>
      <trkpt lat="43.28163" lon="5.59732">
        <ele>147</ele>
        <time>2021-06-02T13:46:04Z</time>
      </trkpt>
      <trkpt lat="43.28167" lon="5.59747">
        <ele>146</ele>
        <time>2021-06-02T13:46:16Z</time>
      </trkpt>
      <trkpt lat="43.28168" lon="5.59763">
        <ele>145.4</ele>
        <time>2021-06-02T13:46:28Z</time>
      </trkpt>
      <trkpt lat="43.28167" lon="5.59778">
        <ele>145.5</ele>
        <time>2021-06-02T13:46:40Z</time>
      </trkpt>
      <trkpt lat="43.28163" lon="5.5979">
        <ele>147</ele>
        <time>2021-06-02T13:46:48Z</time>
      </trkpt>
      <trkpt lat="43.28159" lon="5.59804">
        <ele>148.3</ele>
        <time>2021-06-02T13:47:00Z</time>
      </trkpt>
      <trkpt lat="43.28158" lon="5.59819">
        <ele>148.3</ele>
        <time>2021-06-02T13:47:10Z</time>
      </trkpt>
      <trkpt lat="43.2816" lon="5.59834">
        <ele>147.5</ele>
        <time>2021-06-02T13:47:20Z</time>
      </trkpt>
      <trkpt lat="43.28154" lon="5.59848">
        <ele>148.7</ele>
        <time>2021-06-02T13:47:32Z</time>
      </trkpt>
      <trkpt lat="43.2815" lon="5.59864">
        <ele>148.9</ele>
        <time>2021-06-02T13:47:44Z</time>
      </trkpt>
      <trkpt lat="43.28146" lon="5.59878">
        <ele>149.4</ele>
        <time>2021-06-02T13:47:56Z</time>
      </trkpt>
      <trkpt lat="43.28139" lon="5.59888">
        <ele>151.3</ele>
        <time>2021-06-02T13:48:08Z</time>
      </trkpt>
      <trkpt lat="43.28139" lon="5.59904">
        <ele>150.3</ele>
        <time>2021-06-02T13:48:22Z</time>
      </trkpt>
      <trkpt lat="43.28138" lon="5.59918">
        <ele>149.6</ele>
        <time>2021-06-02T13:48:32Z</time>
      </trkpt>
      <trkpt lat="43.28136" lon="5.59933">
        <ele>149.6</ele>
        <time>2021-06-02T13:48:42Z</time>
      </trkpt>
      <trkpt lat="43.28136" lon="5.59949">
        <ele>148.8</ele>
        <time>2021-06-02T13:48:52Z</time>
      </trkpt>
      <trkpt lat="43.28132" lon="5.59965">
        <ele>149.6</ele>
        <time>2021-06-02T13:49:04Z</time>
      </trkpt>
      <trkpt lat="43.2813" lon="5.59979">
        <ele>149.7</ele>
        <time>2021-06-02T13:49:14Z</time>
      </trkpt>
      <trkpt lat="43.2813" lon="5.59995">
        <ele>148.7</ele>
        <time>2021-06-02T13:49:24Z</time>
      </trkpt>
      <trkpt lat="43.2813" lon="5.60012">
        <ele>147.8</ele>
        <time>2021-06-02T13:49:36Z</time>
      </trkpt>
      <trkpt lat="43.2813" lon="5.60027">
        <ele>146.4</ele>
        <time>2021-06-02T13:49:46Z</time>
      </trkpt>
      <trkpt lat="43.28128" lon="5.60042">
        <ele>146.5</ele>
        <time>2021-06-02T13:49:58Z</time>
      </trkpt>
      <trkpt lat="43.28128" lon="5.60058">
        <ele>145.2</ele>
        <time>2021-06-02T13:50:08Z</time>
      </trkpt>
      <trkpt lat="43.28129" lon="5.60073">
        <ele>143.8</ele>
        <time>2021-06-02T13:50:18Z</time>
      </trkpt>
      <trkpt lat="43.2813" lon="5.60091">
        <ele>142.7</ele>
        <time>2021-06-02T13:50:30Z</time>
      </trkpt>
      <trkpt lat="43.28131" lon="5.60106">
        <ele>142.6</ele>
        <time>2021-06-02T13:50:40Z</time>
      </trkpt>
      <trkpt lat="43.28131" lon="5.60123">
        <ele>142.9</ele>
        <time>2021-06-02T13:50:52Z</time>
      </trkpt>
      <trkpt lat="43.28131" lon="5.60137">
        <ele>142.9</ele>
        <time>2021-06-02T13:51:02Z</time>
      </trkpt>
      <trkpt lat="43.28131" lon="5.60156">
        <ele>143.2</ele>
        <time>2021-06-02T13:51:14Z</time>
      </trkpt>
      <trkpt lat="43.28131" lon="5.60169">
        <ele>143.6</ele>
        <time>2021-06-02T13:51:22Z</time>
      </trkpt>
      <trkpt lat="43.28129" lon="5.60184">
        <ele>144.2</ele>
        <time>2021-06-02T13:51:32Z</time>
      </trkpt>
      <trkpt lat="43.28131" lon="5.60199">
        <ele>143.5</ele>
        <time>2021-06-02T13:51:42Z</time>
      </trkpt>
      <trkpt lat="43.28133" lon="5.60211">
        <ele>142.9</ele>
        <time>2021-06-02T13:51:50Z</time>
      </trkpt>
      <trkpt lat="43.28133" lon="5.60228">
        <ele>142.8</ele>
        <time>2021-06-02T13:52:02Z</time>
      </trkpt>
      <trkpt lat="43.28131" lon="5.60245">
        <ele>143.7</ele>
        <time>2021-06-02T13:52:16Z</time>
      </trkpt>
      <trkpt lat="43.28128" lon="5.60259">
        <ele>144</ele>
        <time>2021-06-02T13:52:26Z</time>
      </trkpt>
      <trkpt lat="43.28124" lon="5.60273">
        <ele>143.9</ele>
        <time>2021-06-02T13:52:36Z</time>
      </trkpt>
      <trkpt lat="43.28119" lon="5.60289">
        <ele>143.5</ele>
        <time>2021-06-02T13:52:48Z</time>
      </trkpt>
      <trkpt lat="43.28113" lon="5.60304">
        <ele>144</ele>
        <time>2021-06-02T13:53:00Z</time>
      </trkpt>
      <trkpt lat="43.28104" lon="5.60315">
        <ele>145.5</ele>
        <time>2021-06-02T13:53:10Z</time>
      </trkpt>
      <trkpt lat="43.28096" lon="5.60326">
        <ele>146.9</ele>
        <time>2021-06-02T13:53:20Z</time>
      </trkpt>
      <trkpt lat="43.28087" lon="5.60336">
        <ele>148.3</ele>
        <time>2021-06-02T13:53:32Z</time>
      </trkpt>
      <trkpt lat="43.28077" lon="5.60346">
        <ele>149.5</ele>
        <time>2021-06-02T13:53:42Z</time>
      </trkpt>
      <trkpt lat="43.28072" lon="5.60359">
        <ele>148.3</ele>
        <time>2021-06-02T13:53:52Z</time>
      </trkpt>
      <trkpt lat="43.28068" lon="5.6037">
        <ele>147.3</ele>
        <time>2021-06-02T13:54:00Z</time>
      </trkpt>
      <trkpt lat="43.2806" lon="5.60384">
        <ele>146.6</ele>
        <time>2021-06-02T13:54:12Z</time>
      </trkpt>
      <trkpt lat="43.2805" lon="5.60397">
        <ele>146.3</ele>
        <time>2021-06-02T13:54:24Z</time>
      </trkpt>
      <trkpt lat="43.28042" lon="5.60407">
        <ele>146</ele>
        <time>2021-06-02T13:54:36Z</time>
      </trkpt>
      <trkpt lat="43.28036" lon="5.60417">
        <ele>145.4</ele>
        <time>2021-06-02T13:54:44Z</time>
      </trkpt>
      <trkpt lat="43.28026" lon="5.60427">
        <ele>146.8</ele>
        <time>2021-06-02T13:54:56Z</time>
      </trkpt>
      <trkpt lat="43.28015" lon="5.60429">
        <ele>149.2</ele>
        <time>2021-06-02T13:55:08Z</time>
      </trkpt>
      <trkpt lat="43.28004" lon="5.60429">
        <ele>151.8</ele>
        <time>2021-06-02T13:55:18Z</time>
      </trkpt>
      <trkpt lat="43.27995" lon="5.60435">
        <ele>153.6</ele>
        <time>2021-06-02T13:55:28Z</time>
      </trkpt>
      <trkpt lat="43.27991" lon="5.60447">
        <ele>153.5</ele>
        <time>2021-06-02T13:56:38Z</time>
      </trkpt>
      <trkpt lat="43.27993" lon="5.60451">
        <ele>152.7</ele>
        <time>2021-06-02T13:59:54Z</time>
      </trkpt>
      <trkpt lat="43.27996" lon="5.60465">
        <ele>150.6</ele>
        <time>2021-06-02T14:00:14Z</time>
      </trkpt>
      <trkpt lat="43.28002" lon="5.60477">
        <ele>147.7</ele>
        <time>2021-06-02T14:00:30Z</time>
      </trkpt>
      <trkpt lat="43.28007" lon="5.6049">
        <ele>145.2</ele>
        <time>2021-06-02T14:00:44Z</time>
      </trkpt>
      <trkpt lat="43.28011" lon="5.60503">
        <ele>143.2</ele>
        <time>2021-06-02T14:00:58Z</time>
      </trkpt>
      <trkpt lat="43.28011" lon="5.60518">
        <ele>141.5</ele>
        <time>2021-06-02T14:01:10Z</time>
      </trkpt>
      <trkpt lat="43.28009" lon="5.60534">
        <ele>140.4</ele>
        <time>2021-06-02T14:01:22Z</time>
      </trkpt>
      <trkpt lat="43.28004" lon="5.60547">
        <ele>140.5</ele>
        <time>2021-06-02T14:01:32Z</time>
      </trkpt>
      <trkpt lat="43.27997" lon="5.60563">
        <ele>140.8</ele>
        <time>2021-06-02T14:01:44Z</time>
      </trkpt>
      <trkpt lat="43.27993" lon="5.60575">
        <ele>141</ele>
        <time>2021-06-02T14:01:52Z</time>
      </trkpt>
      <trkpt lat="43.27986" lon="5.6059">
        <ele>141.6</ele>
        <time>2021-06-02T14:02:04Z</time>
      </trkpt>
      <trkpt lat="43.2798" lon="5.606">
        <ele>141.6</ele>
        <time>2021-06-02T14:02:12Z</time>
      </trkpt>
      <trkpt lat="43.27974" lon="5.60612">
        <ele>141.2</ele>
        <time>2021-06-02T14:02:20Z</time>
      </trkpt>
      <trkpt lat="43.27967" lon="5.60627">
        <ele>140.5</ele>
        <time>2021-06-02T14:02:32Z</time>
      </trkpt>
      <trkpt lat="43.27961" lon="5.60641">
        <ele>139.7</ele>
        <time>2021-06-02T14:02:44Z</time>
      </trkpt>
      <trkpt lat="43.27952" lon="5.60655">
        <ele>139.6</ele>
        <time>2021-06-02T14:02:56Z</time>
      </trkpt>
      <trkpt lat="43.27943" lon="5.60666">
        <ele>139.8</ele>
        <time>2021-06-02T14:03:06Z</time>
      </trkpt>
      <trkpt lat="43.27937" lon="5.60674">
        <ele>140.6</ele>
        <time>2021-06-02T14:03:14Z</time>
      </trkpt>
      <trkpt lat="43.27927" lon="5.60683">
        <ele>142.2</ele>
        <time>2021-06-02T14:03:24Z</time>
      </trkpt>
      <trkpt lat="43.27917" lon="5.60688">
        <ele>144</ele>
        <time>2021-06-02T14:03:36Z</time>
      </trkpt>
      <trkpt lat="43.27906" lon="5.60695">
        <ele>146.6</ele>
        <time>2021-06-02T14:03:48Z</time>
      </trkpt>
      <trkpt lat="43.27905" lon="5.60709">
        <ele>145</ele>
        <time>2021-06-02T14:03:58Z</time>
      </trkpt>
      <trkpt lat="43.27905" lon="5.60725">
        <ele>142.8</ele>
        <time>2021-06-02T14:04:10Z</time>
      </trkpt>
      <trkpt lat="43.27911" lon="5.60741">
        <ele>139</ele>
        <time>2021-06-02T14:04:22Z</time>
      </trkpt>
      <trkpt lat="43.27917" lon="5.60754">
        <ele>136.1</ele>
        <time>2021-06-02T14:04:32Z</time>
      </trkpt>
      <trkpt lat="43.27923" lon="5.60766">
        <ele>135.1</ele>
        <time>2021-06-02T14:04:42Z</time>
      </trkpt>
      <trkpt lat="43.27929" lon="5.60778">
        <ele>134.3</ele>
        <time>2021-06-02T14:04:50Z</time>
      </trkpt>
      <trkpt lat="43.27928" lon="5.60794">
        <ele>134.6</ele>
        <time>2021-06-02T14:05:02Z</time>
      </trkpt>
      <trkpt lat="43.27925" lon="5.60809">
        <ele>135.6</ele>
        <time>2021-06-02T14:05:14Z</time>
      </trkpt>
      <trkpt lat="43.27924" lon="5.60825">
        <ele>136.3</ele>
        <time>2021-06-02T14:05:26Z</time>
      </trkpt>
      <trkpt lat="43.27923" lon="5.6084">
        <ele>136.1</ele>
        <time>2021-06-02T14:05:36Z</time>
      </trkpt>
      <trkpt lat="43.27923" lon="5.60855">
        <ele>135.2</ele>
        <time>2021-06-02T14:05:46Z</time>
      </trkpt>
      <trkpt lat="43.27923" lon="5.60872">
        <ele>134</ele>
        <time>2021-06-02T14:05:58Z</time>
      </trkpt>
      <trkpt lat="43.27923" lon="5.60888">
        <ele>132.9</ele>
        <time>2021-06-02T14:06:10Z</time>
      </trkpt>
      <trkpt lat="43.27918" lon="5.60903">
        <ele>132.8</ele>
        <time>2021-06-02T14:06:22Z</time>
      </trkpt>
      <trkpt lat="43.27909" lon="5.60913">
        <ele>132.9</ele>
        <time>2021-06-02T14:06:34Z</time>
      </trkpt>
      <trkpt lat="43.27899" lon="5.60917">
        <ele>133.5</ele>
        <time>2021-06-02T14:06:46Z</time>
      </trkpt>
      <trkpt lat="43.27889" lon="5.60916">
        <ele>134.5</ele>
        <time>2021-06-02T14:07:00Z</time>
      </trkpt>
      <trkpt lat="43.27876" lon="5.60918">
        <ele>135.1</ele>
        <time>2021-06-02T14:07:12Z</time>
      </trkpt>
      <trkpt lat="43.27866" lon="5.60922">
        <ele>135.5</ele>
        <time>2021-06-02T14:07:24Z</time>
      </trkpt>
      <trkpt lat="43.27853" lon="5.60922">
        <ele>136.6</ele>
        <time>2021-06-02T14:07:36Z</time>
      </trkpt>
      <trkpt lat="43.27844" lon="5.60922">
        <ele>137.4</ele>
        <time>2021-06-02T14:07:44Z</time>
      </trkpt>
      <trkpt lat="43.27835" lon="5.60927">
        <ele>137.7</ele>
        <time>2021-06-02T14:07:52Z</time>
      </trkpt>
      <trkpt lat="43.27827" lon="5.60936">
        <ele>138.7</ele>
        <time>2021-06-02T14:08:00Z</time>
      </trkpt>
      <trkpt lat="43.27821" lon="5.60947">
        <ele>139.3</ele>
        <time>2021-06-02T14:08:08Z</time>
      </trkpt>
      <trkpt lat="43.27816" lon="5.6096">
        <ele>139.4</ele>
        <time>2021-06-02T14:08:18Z</time>
      </trkpt>
      <trkpt lat="43.27812" lon="5.60973">
        <ele>138.8</ele>
        <time>2021-06-02T14:08:26Z</time>
      </trkpt>
      <trkpt lat="43.27806" lon="5.60987">
        <ele>138.8</ele>
        <time>2021-06-02T14:08:36Z</time>
      </trkpt>
      <trkpt lat="43.278" lon="5.60999">
        <ele>138.8</ele>
        <time>2021-06-02T14:08:44Z</time>
      </trkpt>
      <trkpt lat="43.27791" lon="5.6101">
        <ele>139.9</ele>
        <time>2021-06-02T14:08:52Z</time>
      </trkpt>
      <trkpt lat="43.27786" lon="5.61024">
        <ele>139.5</ele>
        <time>2021-06-02T14:09:02Z</time>
      </trkpt>
      <trkpt lat="43.27784" lon="5.6104">
        <ele>138.2</ele>
        <time>2021-06-02T14:09:12Z</time>
      </trkpt>
      <trkpt lat="43.2778" lon="5.61054">
        <ele>137.2</ele>
        <time>2021-06-02T14:09:22Z</time>
      </trkpt>
      <trkpt lat="43.27776" lon="5.61067">
        <ele>136.6</ele>
        <time>2021-06-02T14:09:30Z</time>
      </trkpt>
      <trkpt lat="43.2777" lon="5.61079">
        <ele>136.6</ele>
        <time>2021-06-02T14:09:38Z</time>
      </trkpt>
      <trkpt lat="43.27763" lon="5.61094">
        <ele>136.4</ele>
        <time>2021-06-02T14:09:50Z</time>
      </trkpt>
      <trkpt lat="43.27759" lon="5.61108">
        <ele>135.5</ele>
        <time>2021-06-02T14:10:02Z</time>
      </trkpt>
      <trkpt lat="43.27752" lon="5.61119">
        <ele>135.4</ele>
        <time>2021-06-02T14:10:12Z</time>
      </trkpt>
      <trkpt lat="43.27746" lon="5.61136">
        <ele>134.9</ele>
        <time>2021-06-02T14:10:24Z</time>
      </trkpt>
      <trkpt lat="43.27741" lon="5.61148">
        <ele>135.2</ele>
        <time>2021-06-02T14:10:34Z</time>
      </trkpt>
      <trkpt lat="43.27734" lon="5.6116">
        <ele>135.8</ele>
        <time>2021-06-02T14:10:44Z</time>
      </trkpt>
      <trkpt lat="43.27729" lon="5.61175">
        <ele>135.3</ele>
        <time>2021-06-02T14:10:54Z</time>
      </trkpt>
      <trkpt lat="43.27725" lon="5.6119">
        <ele>134.9</ele>
        <time>2021-06-02T14:11:04Z</time>
      </trkpt>
      <trkpt lat="43.27718" lon="5.612">
        <ele>135.3</ele>
        <time>2021-06-02T14:11:12Z</time>
      </trkpt>
      <trkpt lat="43.27714" lon="5.61215">
        <ele>134.1</ele>
        <time>2021-06-02T14:11:20Z</time>
      </trkpt>
      <trkpt lat="43.2771" lon="5.61228">
        <ele>133.3</ele>
        <time>2021-06-02T14:11:28Z</time>
      </trkpt>
      <trkpt lat="43.27705" lon="5.6124">
        <ele>132.5</ele>
        <time>2021-06-02T14:11:38Z</time>
      </trkpt>
      <trkpt lat="43.27695" lon="5.61247">
        <ele>133.3</ele>
        <time>2021-06-02T14:11:46Z</time>
      </trkpt>
      <trkpt lat="43.27689" lon="5.61257">
        <ele>133.6</ele>
        <time>2021-06-02T14:11:54Z</time>
      </trkpt>
      <trkpt lat="43.27681" lon="5.61267">
        <ele>134.6</ele>
        <time>2021-06-02T14:12:06Z</time>
      </trkpt>
      <trkpt lat="43.27679" lon="5.61282">
        <ele>133.8</ele>
        <time>2021-06-02T14:12:14Z</time>
      </trkpt>
      <trkpt lat="43.27681" lon="5.61291">
        <ele>132.7</ele>
        <time>2021-06-02T14:14:16Z</time>
      </trkpt>
      <trkpt lat="43.27678" lon="5.61306">
        <ele>132</ele>
        <time>2021-06-02T14:14:26Z</time>
      </trkpt>
      <trkpt lat="43.2767" lon="5.6132">
        <ele>132.4</ele>
        <time>2021-06-02T14:14:38Z</time>
      </trkpt>
      <trkpt lat="43.27662" lon="5.6133">
        <ele>133.9</ele>
        <time>2021-06-02T14:14:48Z</time>
      </trkpt>
      <trkpt lat="43.27656" lon="5.61344">
        <ele>135.7</ele>
        <time>2021-06-02T14:15:00Z</time>
      </trkpt>
      <trkpt lat="43.27651" lon="5.61358">
        <ele>137.3</ele>
        <time>2021-06-02T14:15:12Z</time>
      </trkpt>
      <trkpt lat="43.27646" lon="5.61373">
        <ele>138.6</ele>
        <time>2021-06-02T14:15:24Z</time>
      </trkpt>
      <trkpt lat="43.2764" lon="5.61387">
        <ele>140.2</ele>
        <time>2021-06-02T14:15:36Z</time>
      </trkpt>
      <trkpt lat="43.27634" lon="5.61398">
        <ele>142.4</ele>
        <time>2021-06-02T14:15:48Z</time>
      </trkpt>
      <trkpt lat="43.27628" lon="5.61412">
        <ele>144.1</ele>
        <time>2021-06-02T14:16:00Z</time>
      </trkpt>
      <trkpt lat="43.27622" lon="5.61426">
        <ele>144.8</ele>
        <time>2021-06-02T14:16:12Z</time>
      </trkpt>
      <trkpt lat="43.27616" lon="5.61442">
        <ele>145.2</ele>
        <time>2021-06-02T14:16:24Z</time>
      </trkpt>
      <trkpt lat="43.27611" lon="5.61457">
        <ele>145.1</ele>
        <time>2021-06-02T14:16:36Z</time>
      </trkpt>
      <trkpt lat="43.27605" lon="5.6147">
        <ele>145.7</ele>
        <time>2021-06-02T14:16:46Z</time>
      </trkpt>
      <trkpt lat="43.276" lon="5.61483">
        <ele>145.5</ele>
        <time>2021-06-02T14:16:56Z</time>
      </trkpt>
      <trkpt lat="43.27593" lon="5.61498">
        <ele>146.1</ele>
        <time>2021-06-02T14:17:08Z</time>
      </trkpt>
      <trkpt lat="43.27586" lon="5.61509">
        <ele>147.4</ele>
        <time>2021-06-02T14:17:18Z</time>
      </trkpt>
      <trkpt lat="43.27581" lon="5.6152">
        <ele>148.5</ele>
        <time>2021-06-02T14:17:26Z</time>
      </trkpt>
      <trkpt lat="43.27576" lon="5.61531">
        <ele>149.6</ele>
        <time>2021-06-02T14:17:34Z</time>
      </trkpt>
      <trkpt lat="43.27572" lon="5.61544">
        <ele>150.4</ele>
        <time>2021-06-02T14:17:44Z</time>
      </trkpt>
      <trkpt lat="43.27568" lon="5.61558">
        <ele>151.5</ele>
        <time>2021-06-02T14:17:54Z</time>
      </trkpt>
      <trkpt lat="43.27566" lon="5.6157">
        <ele>151.4</ele>
        <time>2021-06-02T14:18:02Z</time>
      </trkpt>
      <trkpt lat="43.27565" lon="5.61584">
        <ele>150.9</ele>
        <time>2021-06-02T14:18:10Z</time>
      </trkpt>
      <trkpt lat="43.27564" lon="5.61602">
        <ele>151.5</ele>
        <time>2021-06-02T14:18:22Z</time>
      </trkpt>
      <trkpt lat="43.27567" lon="5.61614">
        <ele>150</ele>
        <time>2021-06-02T14:18:30Z</time>
      </trkpt>
      <trkpt lat="43.27571" lon="5.61629">
        <ele>148.2</ele>
        <time>2021-06-02T14:18:40Z</time>
      </trkpt>
      <trkpt lat="43.27573" lon="5.61644">
        <ele>147.5</ele>
        <time>2021-06-02T14:18:48Z</time>
      </trkpt>
      <trkpt lat="43.27574" lon="5.6166">
        <ele>147.5</ele>
        <time>2021-06-02T14:18:58Z</time>
      </trkpt>
      <trkpt lat="43.27572" lon="5.61672">
        <ele>148.2</ele>
        <time>2021-06-02T14:19:06Z</time>
      </trkpt>
      <trkpt lat="43.27569" lon="5.61685">
        <ele>148.5</ele>
        <time>2021-06-02T14:19:14Z</time>
      </trkpt>
      <trkpt lat="43.27566" lon="5.61703">
        <ele>148.8</ele>
        <time>2021-06-02T14:19:26Z</time>
      </trkpt>
      <trkpt lat="43.27563" lon="5.61716">
        <ele>149.3</ele>
        <time>2021-06-02T14:19:34Z</time>
      </trkpt>
      <trkpt lat="43.27559" lon="5.61733">
        <ele>150.1</ele>
        <time>2021-06-02T14:19:46Z</time>
      </trkpt>
      <trkpt lat="43.2756" lon="5.61748">
        <ele>149.3</ele>
        <time>2021-06-02T14:19:56Z</time>
      </trkpt>
      <trkpt lat="43.27561" lon="5.61764">
        <ele>147.9</ele>
        <time>2021-06-02T14:20:06Z</time>
      </trkpt>
      <trkpt lat="43.27561" lon="5.61782">
        <ele>147</ele>
        <time>2021-06-02T14:20:18Z</time>
      </trkpt>
      <trkpt lat="43.27561" lon="5.61795">
        <ele>146.3</ele>
        <time>2021-06-02T14:20:26Z</time>
      </trkpt>
      <trkpt lat="43.27561" lon="5.61812">
        <ele>145.5</ele>
        <time>2021-06-02T14:20:38Z</time>
      </trkpt>
      <trkpt lat="43.27561" lon="5.61825">
        <ele>144.7</ele>
        <time>2021-06-02T14:20:46Z</time>
      </trkpt>
      <trkpt lat="43.27562" lon="5.61838">
        <ele>143.9</ele>
        <time>2021-06-02T14:20:54Z</time>
      </trkpt>
      <trkpt lat="43.27563" lon="5.61851">
        <ele>143.8</ele>
        <time>2021-06-02T14:21:02Z</time>
      </trkpt>
      <trkpt lat="43.27561" lon="5.61867">
        <ele>144.4</ele>
        <time>2021-06-02T14:21:12Z</time>
      </trkpt>
      <trkpt lat="43.27561" lon="5.61878">
        <ele>144.4</ele>
        <time>2021-06-02T14:24:44Z</time>
      </trkpt>
      <trkpt lat="43.27562" lon="5.61894">
        <ele>144.4</ele>
        <time>2021-06-02T14:24:56Z</time>
      </trkpt>
      <trkpt lat="43.27562" lon="5.61907">
        <ele>144.5</ele>
        <time>2021-06-02T14:25:04Z</time>
      </trkpt>
      <trkpt lat="43.27563" lon="5.61924">
        <ele>144.1</ele>
        <time>2021-06-02T14:25:16Z</time>
      </trkpt>
      <trkpt lat="43.27563" lon="5.61942">
        <ele>143.7</ele>
        <time>2021-06-02T14:25:28Z</time>
      </trkpt>
      <trkpt lat="43.27562" lon="5.6196">
        <ele>144</ele>
        <time>2021-06-02T14:25:40Z</time>
      </trkpt>
      <trkpt lat="43.27561" lon="5.61976">
        <ele>144</ele>
        <time>2021-06-02T14:25:50Z</time>
      </trkpt>
      <trkpt lat="43.27561" lon="5.61991">
        <ele>143.8</ele>
        <time>2021-06-02T14:26:00Z</time>
      </trkpt>
      <trkpt lat="43.2756" lon="5.62006">
        <ele>144</ele>
        <time>2021-06-02T14:26:10Z</time>
      </trkpt>
      <trkpt lat="43.2756" lon="5.6202">
        <ele>144</ele>
        <time>2021-06-02T14:26:20Z</time>
      </trkpt>
      <trkpt lat="43.27559" lon="5.62037">
        <ele>144.1</ele>
        <time>2021-06-02T14:26:32Z</time>
      </trkpt>
      <trkpt lat="43.2756" lon="5.6205">
        <ele>143.8</ele>
        <time>2021-06-02T14:26:40Z</time>
      </trkpt>
      <trkpt lat="43.27558" lon="5.62065">
        <ele>144.2</ele>
        <time>2021-06-02T14:26:50Z</time>
      </trkpt>
      <trkpt lat="43.27558" lon="5.62082">
        <ele>144.1</ele>
        <time>2021-06-02T14:27:00Z</time>
      </trkpt>
      <trkpt lat="43.27556" lon="5.62099">
        <ele>144.6</ele>
        <time>2021-06-02T14:27:12Z</time>
      </trkpt>
      <trkpt lat="43.27557" lon="5.62113">
        <ele>143.9</ele>
        <time>2021-06-02T14:27:20Z</time>
      </trkpt>
      <trkpt lat="43.27555" lon="5.62128">
        <ele>144.1</ele>
        <time>2021-06-02T14:27:30Z</time>
      </trkpt>
      <trkpt lat="43.27553" lon="5.62145">
        <ele>144.6</ele>
        <time>2021-06-02T14:27:42Z</time>
      </trkpt>
      <trkpt lat="43.27553" lon="5.62159">
        <ele>144.4</ele>
        <time>2021-06-02T14:27:50Z</time>
      </trkpt>
      <trkpt lat="43.27552" lon="5.62172">
        <ele>144.1</ele>
        <time>2021-06-02T14:27:58Z</time>
      </trkpt>
      <trkpt lat="43.27552" lon="5.62184">
        <ele>143.7</ele>
        <time>2021-06-02T14:28:06Z</time>
      </trkpt>
      <trkpt lat="43.27549" lon="5.62199">
        <ele>144.3</ele>
        <time>2021-06-02T14:28:18Z</time>
      </trkpt>
      <trkpt lat="43.27547" lon="5.62212">
        <ele>144.9</ele>
        <time>2021-06-02T14:28:26Z</time>
      </trkpt>
      <trkpt lat="43.27542" lon="5.62229">
        <ele>146.4</ele>
        <time>2021-06-02T14:28:38Z</time>
      </trkpt>
      <trkpt lat="43.27539" lon="5.62242">
        <ele>147.2</ele>
        <time>2021-06-02T14:28:46Z</time>
      </trkpt>
      <trkpt lat="43.27534" lon="5.62256">
        <ele>148.7</ele>
        <time>2021-06-02T14:28:56Z</time>
      </trkpt>
      <trkpt lat="43.2753" lon="5.62271">
        <ele>150.3</ele>
        <time>2021-06-02T14:29:08Z</time>
      </trkpt>
      <trkpt lat="43.27526" lon="5.62286">
        <ele>151.6</ele>
        <time>2021-06-02T14:29:20Z</time>
      </trkpt>
      <trkpt lat="43.2752" lon="5.62299">
        <ele>153.7</ele>
        <time>2021-06-02T14:29:30Z</time>
      </trkpt>
      <trkpt lat="43.27514" lon="5.62308">
        <ele>156.3</ele>
        <time>2021-06-02T14:29:38Z</time>
      </trkpt>
      <trkpt lat="43.27507" lon="5.62321">
        <ele>158.8</ele>
        <time>2021-06-02T14:29:48Z</time>
      </trkpt>
      <trkpt lat="43.275" lon="5.62334">
        <ele>161</ele>
        <time>2021-06-02T14:29:58Z</time>
      </trkpt>
      <trkpt lat="43.27495" lon="5.62351">
        <ele>162.8</ele>
        <time>2021-06-02T14:30:10Z</time>
      </trkpt>
      <trkpt lat="43.27495" lon="5.62365">
        <ele>163.1</ele>
        <time>2021-06-02T14:30:18Z</time>
      </trkpt>
      <trkpt lat="43.27497" lon="5.62381">
        <ele>162.3</ele>
        <time>2021-06-02T14:30:28Z</time>
      </trkpt>
      <trkpt lat="43.275" lon="5.62398">
        <ele>160.9</ele>
        <time>2021-06-02T14:30:40Z</time>
      </trkpt>
      <trkpt lat="43.27502" lon="5.62413">
        <ele>160.3</ele>
        <time>2021-06-02T14:30:50Z</time>
      </trkpt>
      <trkpt lat="43.27503" lon="5.62428">
        <ele>161</ele>
        <time>2021-06-02T14:31:00Z</time>
      </trkpt>
      <trkpt lat="43.27506" lon="5.62443">
        <ele>161.1</ele>
        <time>2021-06-02T14:31:10Z</time>
      </trkpt>
      <trkpt lat="43.27509" lon="5.62456">
        <ele>161</ele>
        <time>2021-06-02T14:31:18Z</time>
      </trkpt>
      <trkpt lat="43.27514" lon="5.62473">
        <ele>159.9</ele>
        <time>2021-06-02T14:31:30Z</time>
      </trkpt>
      <trkpt lat="43.27519" lon="5.62484">
        <ele>158.6</ele>
        <time>2021-06-02T14:31:38Z</time>
      </trkpt>
      <trkpt lat="43.27524" lon="5.62497">
        <ele>157</ele>
        <time>2021-06-02T14:31:46Z</time>
      </trkpt>
      <trkpt lat="43.27529" lon="5.62508">
        <ele>155.5</ele>
        <time>2021-06-02T14:31:54Z</time>
      </trkpt>
      <trkpt lat="43.27532" lon="5.6252">
        <ele>154.5</ele>
        <time>2021-06-02T14:32:02Z</time>
      </trkpt>
      <trkpt lat="43.27536" lon="5.62537">
        <ele>153.8</ele>
        <time>2021-06-02T14:32:14Z</time>
      </trkpt>
      <trkpt lat="43.27538" lon="5.62552">
        <ele>154.1</ele>
        <time>2021-06-02T14:32:24Z</time>
      </trkpt>
      <trkpt lat="43.2754" lon="5.62564">
        <ele>153.5</ele>
        <time>2021-06-02T14:32:32Z</time>
      </trkpt>
      <trkpt lat="43.27541" lon="5.62579">
        <ele>154.2</ele>
        <time>2021-06-02T14:32:42Z</time>
      </trkpt>
      <trkpt lat="43.27543" lon="5.62595">
        <ele>153.8</ele>
        <time>2021-06-02T14:32:52Z</time>
      </trkpt>
      <trkpt lat="43.27543" lon="5.62608">
        <ele>154.1</ele>
        <time>2021-06-02T14:33:00Z</time>
      </trkpt>
      <trkpt lat="43.27545" lon="5.62621">
        <ele>153.3</ele>
        <time>2021-06-02T14:33:08Z</time>
      </trkpt>
      <trkpt lat="43.27548" lon="5.62636">
        <ele>152.6</ele>
        <time>2021-06-02T14:33:18Z</time>
      </trkpt>
      <trkpt lat="43.27549" lon="5.6265">
        <ele>152.5</ele>
        <time>2021-06-02T14:33:28Z</time>
      </trkpt>
      <trkpt lat="43.2755" lon="5.62664">
        <ele>152.3</ele>
        <time>2021-06-02T14:33:36Z</time>
      </trkpt>
      <trkpt lat="43.27551" lon="5.62679">
        <ele>152.9</ele>
        <time>2021-06-02T14:33:46Z</time>
      </trkpt>
      <trkpt lat="43.27554" lon="5.62693">
        <ele>151.8</ele>
        <time>2021-06-02T14:33:56Z</time>
      </trkpt>
      <trkpt lat="43.27557" lon="5.6271">
        <ele>151.5</ele>
        <time>2021-06-02T14:34:08Z</time>
      </trkpt>
      <trkpt lat="43.27562" lon="5.62724">
        <ele>150.2</ele>
        <time>2021-06-02T14:34:18Z</time>
      </trkpt>
      <trkpt lat="43.27567" lon="5.62739">
        <ele>148.7</ele>
        <time>2021-06-02T14:34:30Z</time>
      </trkpt>
      <trkpt lat="43.27571" lon="5.62754">
        <ele>148.3</ele>
        <time>2021-06-02T14:34:40Z</time>
      </trkpt>
      <trkpt lat="43.27569" lon="5.6277">
        <ele>150.3</ele>
        <time>2021-06-02T14:34:52Z</time>
      </trkpt>
      <trkpt lat="43.27565" lon="5.62783">
        <ele>152.5</ele>
        <time>2021-06-02T14:35:00Z</time>
      </trkpt>
      <trkpt lat="43.27563" lon="5.62801">
        <ele>154.8</ele>
        <time>2021-06-02T14:35:12Z</time>
      </trkpt>
      <trkpt lat="43.27562" lon="5.62816">
        <ele>155.9</ele>
        <time>2021-06-02T14:35:22Z</time>
      </trkpt>
      <trkpt lat="43.2756" lon="5.6283">
        <ele>157.8</ele>
        <time>2021-06-02T14:35:36Z</time>
      </trkpt>
      <trkpt lat="43.2756" lon="5.62846">
        <ele>159.2</ele>
        <time>2021-06-02T14:35:52Z</time>
      </trkpt>
      <trkpt lat="43.2756" lon="5.6286">
        <ele>160</ele>
        <time>2021-06-02T14:36:04Z</time>
      </trkpt>
      <trkpt lat="43.27562" lon="5.62873">
        <ele>160.2</ele>
        <time>2021-06-02T14:36:44Z</time>
      </trkpt>
      <trkpt lat="43.2757" lon="5.62881">
        <ele>157.3</ele>
        <time>2021-06-02T14:39:40Z</time>
      </trkpt>
      <trkpt lat="43.27573" lon="5.62894">
        <ele>156.9</ele>
        <time>2021-06-02T14:39:52Z</time>
      </trkpt>
      <trkpt lat="43.27578" lon="5.62908">
        <ele>155.5</ele>
        <time>2021-06-02T14:40:04Z</time>
      </trkpt>
      <trkpt lat="43.27586" lon="5.62919">
        <ele>153</ele>
        <time>2021-06-02T14:40:14Z</time>
      </trkpt>
      <trkpt lat="43.27594" lon="5.62929">
        <ele>150.3</ele>
        <time>2021-06-02T14:40:24Z</time>
      </trkpt>
      <trkpt lat="43.27599" lon="5.6294">
        <ele>148.4</ele>
        <time>2021-06-02T14:40:34Z</time>
      </trkpt>
      <trkpt lat="43.27603" lon="5.62957">
        <ele>147.3</ele>
        <time>2021-06-02T14:40:46Z</time>
      </trkpt>
      <trkpt lat="43.27607" lon="5.62971">
        <ele>146.2</ele>
        <time>2021-06-02T14:40:56Z</time>
      </trkpt>
      <trkpt lat="43.27608" lon="5.62985">
        <ele>146.1</ele>
        <time>2021-06-02T14:41:08Z</time>
      </trkpt>
      <trkpt lat="43.27607" lon="5.63002">
        <ele>146.6</ele>
        <time>2021-06-02T14:41:20Z</time>
      </trkpt>
      <trkpt lat="43.27601" lon="5.63017">
        <ele>146.1</ele>
        <time>2021-06-02T14:41:32Z</time>
      </trkpt>
      <trkpt lat="43.27593" lon="5.63028">
        <ele>147.3</ele>
        <time>2021-06-02T14:41:44Z</time>
      </trkpt>
      <trkpt lat="43.27587" lon="5.63041">
        <ele>147.4</ele>
        <time>2021-06-02T14:41:54Z</time>
      </trkpt>
      <trkpt lat="43.27582" lon="5.63055">
        <ele>146.7</ele>
        <time>2021-06-02T14:42:04Z</time>
      </trkpt>
      <trkpt lat="43.27576" lon="5.63068">
        <ele>147.1</ele>
        <time>2021-06-02T14:42:14Z</time>
      </trkpt>
      <trkpt lat="43.27572" lon="5.63083">
        <ele>146.5</ele>
        <time>2021-06-02T14:42:28Z</time>
      </trkpt>
      <trkpt lat="43.27567" lon="5.63094">
        <ele>147</ele>
        <time>2021-06-02T14:42:36Z</time>
      </trkpt>
      <trkpt lat="43.27563" lon="5.63108">
        <ele>146.5</ele>
        <time>2021-06-02T14:42:46Z</time>
      </trkpt>
      <trkpt lat="43.27558" lon="5.6312">
        <ele>146.2</ele>
        <time>2021-06-02T14:42:54Z</time>
      </trkpt>
      <trkpt lat="43.27553" lon="5.63131">
        <ele>146.6</ele>
        <time>2021-06-02T14:43:02Z</time>
      </trkpt>
      <trkpt lat="43.27547" lon="5.63144">
        <ele>146.4</ele>
        <time>2021-06-02T14:43:12Z</time>
      </trkpt>
      <trkpt lat="43.27541" lon="5.63157">
        <ele>146.3</ele>
        <time>2021-06-02T14:43:22Z</time>
      </trkpt>
      <trkpt lat="43.27533" lon="5.6317">
        <ele>146.8</ele>
        <time>2021-06-02T14:43:34Z</time>
      </trkpt>
      <trkpt lat="43.27524" lon="5.63182">
        <ele>147.4</ele>
        <time>2021-06-02T14:43:46Z</time>
      </trkpt>
      <trkpt lat="43.27515" lon="5.63194">
        <ele>147.5</ele>
        <time>2021-06-02T14:43:58Z</time>
      </trkpt>
      <trkpt lat="43.27507" lon="5.63208">
        <ele>146.1</ele>
        <time>2021-06-02T14:44:10Z</time>
      </trkpt>
      <trkpt lat="43.275" lon="5.63224">
        <ele>143.1</ele>
        <time>2021-06-02T14:44:22Z</time>
      </trkpt>
      <trkpt lat="43.27492" lon="5.63237">
        <ele>143.3</ele>
        <time>2021-06-02T14:44:34Z</time>
      </trkpt>
      <trkpt lat="43.27485" lon="5.63248">
        <ele>143.3</ele>
        <time>2021-06-02T14:44:44Z</time>
      </trkpt>
      <trkpt lat="43.2748" lon="5.6326">
        <ele>142.9</ele>
        <time>2021-06-02T14:44:54Z</time>
      </trkpt>
      <trkpt lat="43.27472" lon="5.63272">
        <ele>144.3</ele>
        <time>2021-06-02T14:45:08Z</time>
      </trkpt>
      <trkpt lat="43.27465" lon="5.63286">
        <ele>144.5</ele>
        <time>2021-06-02T14:45:20Z</time>
      </trkpt>
      <trkpt lat="43.27458" lon="5.63297">
        <ele>145.2</ele>
        <time>2021-06-02T14:45:30Z</time>
      </trkpt>
      <trkpt lat="43.2745" lon="5.63305">
        <ele>146.3</ele>
        <time>2021-06-02T14:45:38Z</time>
      </trkpt>
      <trkpt lat="43.27442" lon="5.63313">
        <ele>147.6</ele>
        <time>2021-06-02T14:45:46Z</time>
      </trkpt>
      <trkpt lat="43.27435" lon="5.63326">
        <ele>146.9</ele>
        <time>2021-06-02T14:45:56Z</time>
      </trkpt>
      <trkpt lat="43.27427" lon="5.63341">
        <ele>145.7</ele>
        <time>2021-06-02T14:46:08Z</time>
      </trkpt>
      <trkpt lat="43.27423" lon="5.63353">
        <ele>144.3</ele>
        <time>2021-06-02T14:46:16Z</time>
      </trkpt>
      <trkpt lat="43.27419" lon="5.63367">
        <ele>141.9</ele>
        <time>2021-06-02T14:46:20Z</time>
      </trkpt>
      <trkpt lat="43.27414" lon="5.6338">
        <ele>140.4</ele>
        <time>2021-06-02T14:46:32Z</time>
      </trkpt>
      <trkpt lat="43.27411" lon="5.63392">
        <ele>138.8</ele>
        <time>2021-06-02T14:46:40Z</time>
      </trkpt>
      <trkpt lat="43.27406" lon="5.63407">
        <ele>137.2</ele>
        <time>2021-06-02T14:46:50Z</time>
      </trkpt>
      <trkpt lat="43.27399" lon="5.63421">
        <ele>137.2</ele>
        <time>2021-06-02T14:47:00Z</time>
      </trkpt>
      <trkpt lat="43.2739" lon="5.6343">
        <ele>139.3</ele>
        <time>2021-06-02T14:47:10Z</time>
      </trkpt>
      <trkpt lat="43.27383" lon="5.63439">
        <ele>140.3</ele>
        <time>2021-06-02T14:47:18Z</time>
      </trkpt>
      <trkpt lat="43.27375" lon="5.63451">
        <ele>140.8</ele>
        <time>2021-06-02T14:47:28Z</time>
      </trkpt>
      <trkpt lat="43.27366" lon="5.63461">
        <ele>141.5</ele>
        <time>2021-06-02T14:47:38Z</time>
      </trkpt>
      <trkpt lat="43.27358" lon="5.6347">
        <ele>142</ele>
        <time>2021-06-02T14:47:46Z</time>
      </trkpt>
      <trkpt lat="43.27349" lon="5.63477">
        <ele>142.6</ele>
        <time>2021-06-02T14:47:54Z</time>
      </trkpt>
      <trkpt lat="43.2734" lon="5.63483">
        <ele>143.4</ele>
        <time>2021-06-02T14:48:02Z</time>
      </trkpt>
      <trkpt lat="43.27334" lon="5.63493">
        <ele>141.9</ele>
        <time>2021-06-02T14:48:10Z</time>
      </trkpt>
      <trkpt lat="43.27325" lon="5.63503">
        <ele>141.7</ele>
        <time>2021-06-02T14:48:20Z</time>
      </trkpt>
      <trkpt lat="43.27316" lon="5.63511">
        <ele>142.5</ele>
        <time>2021-06-02T14:48:30Z</time>
      </trkpt>
      <trkpt lat="43.27306" lon="5.63521">
        <ele>143</ele>
        <time>2021-06-02T14:48:42Z</time>
      </trkpt>
      <trkpt lat="43.27296" lon="5.63532">
        <ele>143.5</ele>
        <time>2021-06-02T14:48:54Z</time>
      </trkpt>
      <trkpt lat="43.27285" lon="5.63543">
        <ele>144.1</ele>
        <time>2021-06-02T14:49:06Z</time>
      </trkpt>
      <trkpt lat="43.27276" lon="5.63552">
        <ele>144.2</ele>
        <time>2021-06-02T14:49:16Z</time>
      </trkpt>
      <trkpt lat="43.27266" lon="5.63557">
        <ele>145.6</ele>
        <time>2021-06-02T14:49:26Z</time>
      </trkpt>
      <trkpt lat="43.27259" lon="5.63564">
        <ele>145.8</ele>
        <time>2021-06-02T14:49:34Z</time>
      </trkpt>
      <trkpt lat="43.2725" lon="5.63573">
        <ele>146.1</ele>
        <time>2021-06-02T14:49:44Z</time>
      </trkpt>
      <trkpt lat="43.27241" lon="5.63583">
        <ele>145.6</ele>
        <time>2021-06-02T14:49:56Z</time>
      </trkpt>
      <trkpt lat="43.2723" lon="5.63585">
        <ele>147.2</ele>
        <time>2021-06-02T14:50:08Z</time>
      </trkpt>
      <trkpt lat="43.27224" lon="5.6357">
        <ele>150.3</ele>
        <time>2021-06-02T14:50:20Z</time>
      </trkpt>
      <trkpt lat="43.27221" lon="5.63555">
        <ele>152.7</ele>
        <time>2021-06-02T14:50:30Z</time>
      </trkpt>
      <trkpt lat="43.27219" lon="5.6354">
        <ele>155</ele>
        <time>2021-06-02T14:50:40Z</time>
      </trkpt>
      <trkpt lat="43.27215" lon="5.63527">
        <ele>157</ele>
        <time>2021-06-02T14:50:54Z</time>
      </trkpt>
      <trkpt lat="43.27206" lon="5.6352">
        <ele>158.4</ele>
        <time>2021-06-02T14:51:02Z</time>
      </trkpt>
      <trkpt lat="43.27195" lon="5.63523">
        <ele>158.6</ele>
        <time>2021-06-02T14:51:12Z</time>
      </trkpt>
      <trkpt lat="43.27188" lon="5.63534">
        <ele>158.2</ele>
        <time>2021-06-02T14:51:22Z</time>
      </trkpt>
      <trkpt lat="43.27185" lon="5.63547">
        <ele>157.5</ele>
        <time>2021-06-02T14:51:30Z</time>
      </trkpt>
      <trkpt lat="43.27182" lon="5.6356">
        <ele>156.9</ele>
        <time>2021-06-02T14:51:38Z</time>
      </trkpt>
      <trkpt lat="43.27179" lon="5.63575">
        <ele>156.5</ele>
        <time>2021-06-02T14:51:46Z</time>
      </trkpt>
      <trkpt lat="43.2718" lon="5.63591">
        <ele>155.4</ele>
        <time>2021-06-02T14:51:54Z</time>
      </trkpt>
      <trkpt lat="43.27181" lon="5.63607">
        <ele>154.4</ele>
        <time>2021-06-02T14:52:02Z</time>
      </trkpt>
      <trkpt lat="43.27179" lon="5.63623">
        <ele>154</ele>
        <time>2021-06-02T14:52:12Z</time>
      </trkpt>
      <trkpt lat="43.27174" lon="5.63639">
        <ele>154.3</ele>
        <time>2021-06-02T14:52:24Z</time>
      </trkpt>
      <trkpt lat="43.27171" lon="5.63654">
        <ele>154.4</ele>
        <time>2021-06-02T14:52:34Z</time>
      </trkpt>
      <trkpt lat="43.27168" lon="5.63667">
        <ele>154.6</ele>
        <time>2021-06-02T14:52:42Z</time>
      </trkpt>
      <trkpt lat="43.27166" lon="5.63683">
        <ele>155.6</ele>
        <time>2021-06-02T14:52:52Z</time>
      </trkpt>
      <trkpt lat="43.27163" lon="5.637">
        <ele>158</ele>
        <time>2021-06-02T14:53:04Z</time>
      </trkpt>
      <trkpt lat="43.27161" lon="5.63712">
        <ele>159</ele>
        <time>2021-06-02T14:53:12Z</time>
      </trkpt>
      <trkpt lat="43.27165" lon="5.6373">
        <ele>157.4</ele>
        <time>2021-06-02T14:53:20Z</time>
      </trkpt>
      <trkpt lat="43.27173" lon="5.6374">
        <ele>154.8</ele>
        <time>2021-06-02T14:53:28Z</time>
      </trkpt>
      <trkpt lat="43.27178" lon="5.63752">
        <ele>153.5</ele>
        <time>2021-06-02T14:53:36Z</time>
      </trkpt>
      <trkpt lat="43.27182" lon="5.63766">
        <ele>153.8</ele>
        <time>2021-06-02T14:53:48Z</time>
      </trkpt>
      <trkpt lat="43.27187" lon="5.63781">
        <ele>154.4</ele>
        <time>2021-06-02T14:54:00Z</time>
      </trkpt>
      <trkpt lat="43.27187" lon="5.63796">
        <ele>156.5</ele>
        <time>2021-06-02T14:54:14Z</time>
      </trkpt>
      <trkpt lat="43.27197" lon="5.63809">
        <ele>154.9</ele>
        <time>2021-06-02T14:54:26Z</time>
      </trkpt>
      <trkpt lat="43.27206" lon="5.6382">
        <ele>153.5</ele>
        <time>2021-06-02T14:54:36Z</time>
      </trkpt>
      <trkpt lat="43.27215" lon="5.63825">
        <ele>151</ele>
        <time>2021-06-02T14:54:46Z</time>
      </trkpt>
      <trkpt lat="43.27226" lon="5.63833">
        <ele>148.2</ele>
        <time>2021-06-02T14:54:58Z</time>
      </trkpt>
      <trkpt lat="43.27235" lon="5.63838">
        <ele>146.2</ele>
        <time>2021-06-02T14:55:10Z</time>
      </trkpt>
      <trkpt lat="43.27246" lon="5.63842">
        <ele>143.6</ele>
        <time>2021-06-02T14:55:22Z</time>
      </trkpt>
      <trkpt lat="43.27257" lon="5.63846">
        <ele>142.3</ele>
        <time>2021-06-02T14:55:30Z</time>
      </trkpt>
      <trkpt lat="43.27266" lon="5.63851">
        <ele>141.8</ele>
        <time>2021-06-02T14:55:38Z</time>
      </trkpt>
      <trkpt lat="43.27276" lon="5.63856">
        <ele>141.3</ele>
        <time>2021-06-02T14:55:46Z</time>
      </trkpt>
      <trkpt lat="43.27285" lon="5.63859">
        <ele>140.2</ele>
        <time>2021-06-02T14:55:54Z</time>
      </trkpt>
      <trkpt lat="43.27297" lon="5.63861">
        <ele>138.4</ele>
        <time>2021-06-02T14:56:04Z</time>
      </trkpt>
      <trkpt lat="43.27307" lon="5.6386">
        <ele>136.3</ele>
        <time>2021-06-02T14:56:12Z</time>
      </trkpt>
      <trkpt lat="43.27319" lon="5.63856">
        <ele>133.8</ele>
        <time>2021-06-02T14:56:22Z</time>
      </trkpt>
      <trkpt lat="43.27331" lon="5.63849">
        <ele>131.2</ele>
        <time>2021-06-02T14:56:32Z</time>
      </trkpt>
      <trkpt lat="43.27341" lon="5.63845">
        <ele>130.4</ele>
        <time>2021-06-02T14:56:40Z</time>
      </trkpt>
      <trkpt lat="43.2735" lon="5.63836">
        <ele>129.5</ele>
        <time>2021-06-02T14:56:48Z</time>
      </trkpt>
      <trkpt lat="43.27357" lon="5.63821">
        <ele>128.7</ele>
        <time>2021-06-02T14:57:00Z</time>
      </trkpt>
      <trkpt lat="43.27366" lon="5.63808">
        <ele>127.9</ele>
        <time>2021-06-02T14:57:12Z</time>
      </trkpt>
      <trkpt lat="43.27368" lon="5.63793">
        <ele>127.2</ele>
        <time>2021-06-02T14:57:24Z</time>
      </trkpt>
      <trkpt lat="43.2737" lon="5.6378">
        <ele>126.7</ele>
        <time>2021-06-02T14:57:38Z</time>
      </trkpt>
      <trkpt lat="43.27374" lon="5.63765">
        <ele>126.1</ele>
        <time>2021-06-02T14:57:52Z</time>
      </trkpt>
    </trkseg>
  </trk>
</gpx>